Return to Metar
SPECI CYNL 212006Z AUTO 26013G21KT 1 3/4SM BKN010 OVC014 M06/M08 A2925 RMK AO1 SLP950
SPECI CYNL 212004Z AUTO 27009G21KT 2 1/2SM OVC010 M06/M08 A2925 RMK AO1 SLP949
METAR CYNL 212000Z AUTO 27012G21KT 6SM BKN010 OVC012 M06/M08 A2925 RMK AO1 SLP949
SPECI CYNL 211957Z AUTO 26010G18KT 9SM OVC010 M06/M08 A2925 RMK AO1 SLP949
SPECI CYNL 211946Z AUTO 26009G18KT 8SM BKN009 OVC012 M06/M07 A2924 RMK AO1 SLP947
SPECI CYNL 211945Z AUTO 27012G18KT 8SM BKN010 OVC012 M06/M07 A2924 RMK AO1 SLP947
SPECI CYNL 211943Z AUTO 27010G18KT 9SM BKN009 OVC012 M06/M07 A2924 RMK AO1 SLP947
SPECI CYNL 211941Z AUTO 27011G18KT 9SM OVC010 M06/M07 A2924 RMK AO1 SLP946
SPECI CYNL 211940Z AUTO 26008G17KT 9SM BKN009 OVC011 M06/M07 A2924 RMK AO1 SLP946
SPECI CYNL 211939Z AUTO 26007G16KT 9SM OVC010 M06/M07 A2924 RMK AO1 SLP946
SPECI CYNL 211937Z AUTO 26009G16KT 9SM BKN009 OVC012 M06/M07 A2924 RMK AO1 SLP946
SPECI CYNL 211934Z AUTO 26010G16KT 9SM BKN010 OVC012 M06/M07 A2924 RMK AO1 SLP946
SPECI CYNL 211933Z AUTO 26011G16KT 9SM BKN009 OVC012 M06/M07 A2924 RMK AO1 SLP946
SPECI CYNL 211913Z AUTO 26007KT 9SM BKN012 M06/M08 A2924 RMK AO1 SLP946
SPECI CYNL 211910Z AUTO 25008KT 7SM FEW008 SCT012 BKN023 M06/M08 A2924 RMK AO1 SLP946
METAR CYNL 211900Z AUTO 25007KT 6SM FEW008 M07/M08 A2924 RMK AO1 SLP946
SPECI CYNL 211818Z AUTO 24006KT 9SM FEW008 SCT018 BKN034 M09/M10 A2925 RMK AO1 SLP952
SPECI CYNL 211812Z AUTO 23005KT 4SM SCT008 BKN026 OVC034 M09/M11 A2925 RMK AO1 SLP953
SPECI CYNL 211810Z AUTO 23005KT 3SM VV012 M09/M11 A2925 RMK AO1 SLP954
SPECI CYNL 211809Z AUTO 23005KT 3SM FEW007 SCT013 BKN022 M09/M11 A2925 RMK AO1 SLP954
SPECI CYNL 211807Z AUTO 24006KT 3SM SCT007 BKN026 OVC032 M09/M11 A2925 RMK AO1 SLP955
SPECI CYNL 211804Z AUTO 24006KT 2 1/2SM FEW007 SCT014 OVC031 M09/M11 A2925 RMK AO1 SLP955
SPECI CYNL 211801Z AUTO 23005KT 2 1/2SM FEW007 OVC029 M09/M11 A2925 RMK AO1 SLP955
METAR CYNL 211800Z AUTO 23005KT 2 1/2SM VV026 M09/M11 A2925 RMK AO1 SLP955
SPECI CYNL 211759Z AUTO 22006KT 2 1/2SM VV025 M09/M11 A2925 RMK AO1 SLP955
SPECI CYNL 211757Z AUTO 23006KT 2 1/2SM VV024 M09/M11 A2925 RMK AO1 SLP956
SPECI CYNL 211753Z AUTO 24006KT 2 1/2SM VV027 M09/M11 A2925 RMK AO1 SLP956
SPECI CYNL 211719Z AUTO 22004KT 6SM FEW006 SCT020 BKN025 M10/M12 A2926 RMK AO1 SLP959
SPECI CYNL 211714Z AUTO 22004KT 9SM FEW006 BKN022 OVC029 M10/M12 A2926 RMK AO1 SLP959
SPECI CYNL 211704Z AUTO 20005KT 9SM SCT007 BKN029 OVC039 M10/M12 A2926 RMK AO1 SLP960
METAR CYNL 211700Z AUTO 20004KT 9SM FEW005 SCT007 BKN009 M10/M12 A2926 RMK AO1 SLP960
SPECI CYNL 211657Z AUTO 19005KT 3SM FEW004 BKN007 BKN009 M10/M12 A2926 RMK AO1 PRESFR SLP960
SPECI CYNL 211653Z AUTO 20003KT 2SM VV008 M11/M12 A2927 RMK AO1 PRESFR SLP962
SPECI CYNL 211652Z AUTO 21003KT 1 3/4SM VV008 M11/M13 A2927 RMK AO1 PRESFR SLP962
SPECI CYNL 211650Z AUTO 20004KT 1SM VV008 M11/M13 A2927 RMK AO1 PRESFR SLP962
SPECI CYNL 211647Z AUTO 19006KT 3/4SM VV008 M11/M13 A2927 RMK AO1 PRESFR SLP963
SPECI CYNL 211644Z AUTO 19006KT 5/8SM VV008 M11/M13 A2927 RMK AO1 PRESFR SLP963
SPECI CYNL 211642Z AUTO 20005KT 3/4SM VV008 M11/M13 A2927 RMK AO1 PRESFR SLP963
SPECI CYNL 211635Z AUTO 19006KT 1/2SM VV008 M11/M13 A2927 RMK AO1 PRESFR SLP963
SPECI CYNL 211633Z AUTO 19005KT 5/8SM BKN004 OVC010 M11/M13 A2927 RMK AO1 PRESFR SLP963
SPECI CYNL 211632Z AUTO 19005KT 1SM BKN004 OVC010 M11/M13 A2927 RMK AO1 PRESFR SLP963
SPECI CYNL 211631Z AUTO 19005KT 1 1/2SM BKN004 OVC009 M11/M13 A2927 RMK AO1 PRESFR SLP964
SPECI CYNL 211629Z AUTO 18005KT 2 1/2SM OVC004 M11/M13 A2927 RMK AO1 PRESFR SLP964
SPECI CYNL 211622Z AUTO 20005KT 4SM OVC004 M11/M13 A2928 RMK AO1 PRESFR SLP966
METAR CYNL 211600Z AUTO ///// 3SM OVC005 M11/M13 A2927 RMK AO1 PRESFR SLP966
METAR CYNL 211500Z AUTO ///// 9SM BKN008 OVC010 M12/M14 A2931 RMK AO1 PRESFR SLP979
SPECI CYNL 211443Z AUTO ///// 9SM BKN009 OVC011 M12/M14 A2932 RMK AO1 PRESFR SLP983
METAR CYNL 211400Z AUTO ///// 9SM BKN012 BKN045 M12/M14 A2934 RMK AO1 PRESFR SLP992
SPECI CYNL 211355Z AUTO ///// 9SM BKN013 M12/M15 A2934 RMK AO1 PRESFR SLP993
METAR CYNL 211300Z AUTO ///// 9SM BKN088 M12/M14 A2937 RMK AO1 PRESFR SLP000
METAR CYNL 211200Z AUTO ///// 9SM CLR M12/M14 A2940 RMK AO1 SLP011
METAR CYNL 211100Z AUTO ///// 9SM CLR M11/M13 A2942 RMK AO1 PRESFR SLP015
METAR CYNL 211000Z AUTO 11006KT 9SM CLR M11/M14 A2949 RMK AO1 PRESFR SLP040
SPECI CYNL 210909Z AUTO 13007KT 4SM FEW007 SCT013 M12/M14 A2954 RMK AO1 SLP055
SPECI CYNL 210904Z AUTO 15006KT 2 1/2SM FEW007 SCT016 M12/M14 A2954 RMK AO1 SLP057
METAR CYNL 210900Z AUTO 15005KT 9SM SCT007 M12/M14 A2954 RMK AO1 SLP058
SPECI CYNL 210858Z AUTO 15006KT 9SM FEW002 SCT007 M12/M14 A2954 RMK AO1 SLP057
SPECI CYNL 210852Z AUTO 15006KT 9SM FEW003 BKN007 M12/M14 A2955 RMK AO1 PRESFR SLP058
SPECI CYNL 210840Z AUTO 14007KT 9SM SCT003 M12/M14 A2954 RMK AO1 PRESFR SLP056
SPECI CYNL 210835Z AUTO 14006KT 9SM BKN003 M12/M14 A2954 RMK AO1 PRESFR SLP056
SPECI CYNL 210834Z AUTO 14007KT 9SM VV002 M12/M14 A2954 RMK AO1 PRESFR SLP056
SPECI CYNL 210820Z AUTO 14006KT 9SM VV003 M12/M14 A2954 RMK AO1 PRESFR SLP057
METAR CYNL 210800Z AUTO 13006KT 5SM FEW005 M12/M14 A2954 RMK AO1 PRESFR SLP057
SPECI CYNL 210751Z AUTO 12006KT 9SM SCT005 M12/M14 A2955 RMK AO1 PRESFR SLP058
METAR CYNL 210700Z AUTO ///// 9SM OVC005 M12/M15 A2957 RMK AO1 PRESFR SLP066
SPECI CYNL 210607Z AUTO ///// 9SM OVC005 M13/M15 A2960 RMK AO1 PRESFR SLP077
METAR CYNL 210600Z AUTO 14006KT 9SM OVC004 M13/M15 A2960 RMK AO1 PRESFR SLP079
SPECI CYNL 210505Z AUTO ///// 9SM VV004 M13/M15 A2963 RMK AO1 SLP092
METAR CYNL 210500Z AUTO ///// 9SM VV005 M13/M15 A2964 RMK AO1 SLP094
SPECI CYNL 210431Z AUTO ///// 9SM VV005 M13/M16 A2966 RMK AO1 PRESFR SLP102
SPECI CYNL 210420Z AUTO ///// 9SM BKN003 M13/M16 A2966 RMK AO1 PRESFR SLP102
SPECI CYNL 210411Z AUTO ///// 9SM SCT003 M13/M16 A2966 RMK AO1 PRESFR SLP103
SPECI CYNL 210402Z AUTO ///// 9SM VV003 M13/M16 A2966 RMK AO1 PRESFR SLP103
METAR CYNL 210400Z AUTO ///// 9SM VV002 M13/M16 A2966 RMK AO1 PRESFR SLP103
SPECI CYNL 210355Z AUTO 12003KT 9SM VV003 M13/M16 A2966 RMK AO1 PRESFR SLP104
SPECI CYNL 210340Z AUTO 10002KT 9SM FEW002 SCT084 M13/M16 A2967 RMK AO1 PRESFR SLP107
SPECI CYNL 210338Z AUTO 12002KT 9SM VV002 M14/M16 A2967 RMK AO1 PRESFR SLP107
METAR CYNL 210300Z AUTO ///// 9SM FEW002 M14/M16 A2970 RMK AO1 PRESFR SLP117
SPECI CYNL 210214Z AUTO ///// 9SM FEW003 SCT098 M14/M16 A2973 RMK AO1 SLP129
SPECI CYNL 210213Z AUTO ///// 9SM VV003 M14/M16 A2973 RMK AO1 SLP130
SPECI CYNL 210208Z AUTO 18005KT 9SM FEW003 M14/M16 A2973 RMK AO1 SLP131
METAR CYNL 210200Z AUTO 19004KT 9SM CLR M14/M16 A2973 RMK AO1 SLP132
METAR CYNL 210100Z AUTO 22002KT 9SM BKN098 M13/M15 A2975 RMK AO1 PRESFR SLP137
METAR CYNL 210000Z AUTO 21004KT 9SM CLR M13/M15 A2978 RMK AO1 SLP148
SPECI CYNL 202330Z AUTO 21003KT 9SM SCT003 M12/M14 A2978 RMK AO1 SLP148
METAR CYNL 202300Z AUTO 20003KT 9SM OVC003 M12/M14 A2978 RMK AO1 SLP147
SPECI CYNL 202207Z AUTO 21003KT 9SM OVC004 M12/M14 A2979 RMK AO1 PRESFR SLP148
METAR CYNL 202200Z AUTO 21004KT 9SM OVC005 M11/M14 A2979 RMK AO1 PRESFR SLP148
SPECI CYNL 202152Z AUTO 21005KT 9SM OVC005 M11/M13 A2979 RMK AO1 SLP150
METAR CYNL 202100Z AUTO 26003KT 8SM OVC003 M11/M13 A2981 RMK AO1 SLP156
METAR CYNL 202000Z AUTO 26004KT 9SM OVC004 M11/M13 A2981 RMK AO1 SLP157
SPECI CYNL 201908Z AUTO 26005KT 9SM OVC004 M12/M14 A2982 RMK AO1 SLP163
METAR CYNL 201900Z AUTO 25004KT 9SM OVC005 M12/M14 A2982 RMK AO1 SLP162
SPECI CYNL 201842Z AUTO 27004KT 9SM OVC005 M12/M14 A2982 RMK AO1 SLP163
METAR CYNL 201800Z AUTO 26004KT 9SM OVC004 M13/M16 A2983 RMK AO1 SLP168
METAR CYNL 201700Z AUTO ///// 9SM OVC004 M14/M17 A2983 RMK AO1 SLP171
SPECI CYNL 201659Z AUTO ///// 9SM OVC004 M14/M17 A2983 RMK AO1 SLP170
METAR CYNL 201600Z AUTO ///// 9SM OVC007 M15/M17 A2983 RMK AO1 SLP172
METAR CYNL 182300Z AUTO 27004KT 9SM CLR M25/M29 A3057 RMK AO1 SLP443
METAR CYNL 182200Z AUTO ///// 9SM CLR M22/M25 A3057 RMK AO1 PRESRR SLP442
METAR CYNL 182100Z AUTO ///// 9SM CLR M21/M24 A3056 RMK AO1 SLP435
SPECI CYNL 182011Z AUTO 31002KT 9SM FEW005 M20/M24 A3055 RMK AO1 SLP433
METAR CYNL 182000Z AUTO ///// 9SM CLR M20/M24 A3055 RMK AO1 SLP432
METAR CYNL 181900Z AUTO 31003KT 9SM CLR M21/M24 A3055 RMK AO1 SLP430
SPECI CYNL 181812Z AUTO ///// 3SM FEW003 M23/M26 A3054 RMK AO1 SLP429
SPECI CYNL 181810Z AUTO 33004KT 2 1/2SM FEW003 M23/M26 A3054 RMK AO1 SLP429
SPECI CYNL 181801Z AUTO 34003KT 3SM SCT003 M23/M27 A3054 RMK AO1 SLP429
METAR CYNL 181800Z AUTO 34003KT 1 3/4SM SCT003 M23/M27 A3054 RMK AO1 SLP429
SPECI CYNL 181759Z AUTO ///// 1 3/4SM SCT003 M23/M27 A3054 RMK AO1 SLP429
SPECI CYNL 181758Z AUTO ///// 2 1/2SM SCT003 M23/M27 A3053 RMK AO1 SLP429
SPECI CYNL 181755Z AUTO ///// 9SM SCT003 M23/M27 A3054 RMK AO1 SLP429
SPECI CYNL 181739Z AUTO 00003KT 9SM VV003 M23/M27 A3054 RMK AO1 SLP429
SPECI CYNL 181717Z AUTO 34002KT 9SM SCT004 M24/M28 A3054 RMK AO1 SLP431
SPECI CYNL 181710Z AUTO ///// 4SM BKN004 M25/M29 A3053 RMK AO1 SLP431
SPECI CYNL 181709Z AUTO ///// 2 1/2SM VV004 M25/M29 A3053 RMK AO1 SLP431
METAR CYNL 181700Z AUTO ///// 9SM BKN003 OVC005 M25/M29 A3053 RMK AO1 SLP431
SPECI CYNL 181651Z AUTO ///// 9SM BKN003 OVC005 M25/M29 A3053 RMK AO1 PRESRR SLP431
SPECI CYNL 181620Z AUTO 35003KT 9SM BKN005 M26/M30 A3052 RMK AO1 PRESRR SLP429
SPECI CYNL 181608Z AUTO 35004KT 9SM FEW004 M26/M30 A3052 RMK AO1 PRESRR SLP428
METAR CYNL 181600Z AUTO 35005KT 9SM CLR M26/M30 A3052 RMK AO1 PRESRR SLP427
METAR CYNL 181500Z AUTO 35004KT 9SM FEW003 M26/M29 A3049 RMK AO1 SLP419
SPECI CYNL 181450Z AUTO 35004KT 9SM SCT003 M26/M29 A3049 RMK AO1 SLP417
SPECI CYNL 181404Z AUTO ///// 9SM VV004 M25/M29 A3048 RMK AO1 SLP412
METAR CYNL 181400Z AUTO 01003KT 9SM FEW004 M25/M29 A3048 RMK AO1 SLP412
SPECI CYNL 181309Z AUTO 01007KT 9SM SCT005 M24/M28 A3047 RMK AO1 SLP408
SPECI CYNL 181308Z AUTO 01007KT 9SM SCT005 BKN015 M24/M28 A3047 RMK AO1 SLP408
METAR CYNL 181300Z AUTO 01006KT 9SM BKN005 OVC013 M24/M28 A3047 RMK AO1 SLP407
METAR CYNL 181200Z AUTO ///// 9SM OVC006 M24/M27 A3046 RMK AO1 PRESRR SLP401
METAR CYNL 181100Z AUTO ///// 9SM BKN009 BKN013 M24/M28 A3043 RMK AO1 SLP393
SPECI CYNL 181059Z AUTO ///// 9SM BKN009 BKN013 M24/M28 A3043 RMK AO1 SLP393
SPECI CYNL 181058Z AUTO ///// 9SM SCT009 BKN013 M24/M28 A3043 RMK AO1 SLP393
SPECI CYNL 181055Z AUTO ///// 9SM BKN009 BKN013 M24/M28 A3043 RMK AO1 SLP393
SPECI CYNL 181018Z AUTO 01006KT 9SM BKN010 M24/M28 A3043 RMK AO1 SLP392
METAR CYNL 181000Z AUTO 01007KT 9SM CLR M24/M28 A3042 RMK AO1 SLP389
SPECI CYNL 180933Z AUTO 00007KT 9SM SCT006 BKN098 M24/M28 A3041 RMK AO1 PRESRR SLP387
SPECI CYNL 180928Z AUTO 00009KT 9SM VV006 M24/M28 A3041 RMK AO1 PRESRR SLP386
SPECI CYNL 180924Z AUTO 01008KT 9SM FEW006 BKN098 M24/M28 A3041 RMK AO1 PRESRR SLP386
METAR CYNL 180900Z AUTO 00007KT 9SM OVC096 M24/M28 A3041 RMK AO1 PRESRR SLP384
METAR CYNL 180800Z AUTO ///// 9SM CLR M24/M27 A3038 RMK AO1 SLP375
METAR CYNL 180700Z AUTO ///// 9SM FEW007 M23/M26 A3038 RMK AO1 SLP374
SPECI CYNL 180639Z AUTO ///// 5SM FEW009 M23/M26 A3037 RMK AO1 SLP373
METAR CYNL 180600Z AUTO ///// 9SM FEW088 M23/M27 A3037 RMK AO1 SLP372
METAR CYNL 180500Z AUTO ///// 9SM CLR M23/M27 A3036 RMK AO1 SLP370
METAR CYNL 180400Z AUTO ///// 9SM FEW005 M24/M27 A3035 RMK AO1 SLP368
SPECI CYNL 180332Z AUTO ///// 7SM SCT007 M23/M27 A3035 RMK AO1 SLP368
SPECI CYNL 180326Z AUTO ///// 9SM VV007 M23/M27 A3035 RMK AO1 SLP369
SPECI CYNL 180315Z AUTO ///// 9SM FEW009 M23/M26 A3035 RMK AO1 SLP369
METAR CYNL 180300Z AUTO ///// 9SM CLR M23/M26 A3035 RMK AO1 SLP369
METAR CYNL 180200Z AUTO ///// 9SM FEW008 SCT011 BKN110 M22/M26 A3035 RMK AO1 SLP367
SPECI CYNL 180152Z AUTO ///// 9SM FEW005 SCT011 BKN110 M22/M26 A3034 RMK AO1 SLP368
SPECI CYNL 180144Z AUTO ///// 7SM SCT007 BKN010 BKN110 M22/M26 A3034 RMK AO1 SLP366
SPECI CYNL 180138Z AUTO ///// 6SM VV009 M22/M26 A3034 RMK AO1 SLP365
SPECI CYNL 180129Z AUTO ///// 6SM VV010 M22/M25 A3034 RMK AO1 SLP366
SPECI CYNL 180125Z AUTO ///// 7SM VV008 M22/M25 A3034 RMK AO1 SLP365
SPECI CYNL 180117Z AUTO ///// 9SM SCT007 BKN012 M22/M25 A3033 RMK AO1 SLP364
SPECI CYNL 180108Z AUTO ///// 7SM VV009 M22/M25 A3033 RMK AO1 SLP363
METAR CYNL 180100Z AUTO ///// 8SM VV012 M22/M25 A3033 RMK AO1 SLP364
SPECI CYNL 180058Z AUTO ///// 8SM VV010 M22/M25 A3033 RMK AO1 SLP364
SPECI CYNL 180043Z AUTO ///// 3SM VV009 M22/M25 A3033 RMK AO1 PRESRR SLP363
SPECI CYNL 180036Z AUTO ///// 3SM VV014 M22/M25 A3033 RMK AO1 PRESRR SLP363
SPECI CYNL 180006Z AUTO 04005KT 5SM VV015 M21/M25 A3032 RMK AO1 PRESRR SLP358
METAR CYNL 180000Z AUTO ///// 4SM VV011 M21/M25 A3032 RMK AO1 PRESRR SLP357
SPECI CYNL 172357Z AUTO ///// 4SM VV010 M21/M25 A3031 RMK AO1 SLP357
SPECI CYNL 172341Z AUTO ///// 4SM VV009 M22/M25 A3031 RMK AO1 SLP356
SPECI CYNL 172332Z AUTO 04006KT 5SM VV010 M22/M25 A3031 RMK AO1 SLP356
SPECI CYNL 172325Z AUTO 04005KT 3SM VV009 M22/M25 A3031 RMK AO1 SLP355
SPECI CYNL 172318Z AUTO ///// 4SM VV014 M22/M25 A3030 RMK AO1 SLP354
SPECI CYNL 172315Z AUTO 04005KT 3SM VV015 M22/M25 A3030 RMK AO1 SLP354
METAR CYNL 172300Z AUTO ///// 3SM VV011 M22/M25 A3030 RMK AO1 SLP351
SPECI CYNL 172255Z AUTO ///// 3SM VV011 M22/M25 A3030 RMK AO1 SLP352
SPECI CYNL 172253Z AUTO ///// 2 1/2SM VV012 M22/M25 A3030 RMK AO1 SLP353
SPECI CYNL 172234Z AUTO ///// 5SM VV014 M22/M25 A3030 RMK AO1 SLP352
SPECI CYNL 172229Z AUTO 05006KT 5SM VV015 M22/M25 A3030 RMK AO1 SLP353
SPECI CYNL 172224Z AUTO ///// 6SM VV012 M22/M25 A3030 RMK AO1 SLP353
SPECI CYNL 172205Z AUTO 06005KT 9SM FEW008 SCT012 M22/M25 A3030 RMK AO1 SLP352
METAR CYNL 172200Z AUTO ///// 9SM SCT008 BKN011 M22/M25 A3030 RMK AO1 SLP353
SPECI CYNL 172158Z AUTO 06005KT 9SM SCT008 BKN012 BKN016 M22/M25 A3030 RMK AO1 SLP355
SPECI CYNL 172153Z AUTO ///// 7SM VV009 M22/M25 A3030 RMK AO1 SLP355
SPECI CYNL 172139Z AUTO 06004KT 4SM VV014 M22/M25 A3030 RMK AO1 SLP356
SPECI CYNL 172132Z AUTO 05004KT 6SM VV015 M22/M25 A3030 RMK AO1 SLP356
SPECI CYNL 172128Z AUTO 05004KT 7SM VV010 M22/M25 A3030 RMK AO1 SLP355
SPECI CYNL 172109Z AUTO 07004KT 4SM VV009 M22/M26 A3030 RMK AO1 SLP354
SPECI CYNL 172108Z AUTO 07004KT 4SM VV010 M22/M26 A3029 RMK AO1 SLP354
METAR CYNL 172100Z AUTO 05005KT 3SM VV009 M22/M26 A3029 RMK AO1 SLP351
SPECI CYNL 172052Z AUTO ///// 3SM VV011 M22/M26 A3028 RMK AO1 SLP351
SPECI CYNL 172038Z AUTO ///// 2SM VV014 M22/M26 A3028 RMK AO1 SLP350
SPECI CYNL 172036Z AUTO ///// 2 1/2SM VV016 M22/M26 A3028 RMK AO1 SLP350
SPECI CYNL 172026Z AUTO ///// 6SM VV015 M23/M26 A3028 RMK AO1 SLP350
SPECI CYNL 172024Z AUTO ///// 5SM VV011 M23/M26 A3028 RMK AO1 SLP351
SPECI CYNL 172015Z AUTO ///// 3SM VV008 M23/M26 A3029 RMK AO1 SLP352
SPECI CYNL 172012Z AUTO 06004KT 2 1/2SM VV008 M23/M26 A3029 RMK AO1 SLP353
SPECI CYNL 172011Z AUTO 06005KT 3SM VV008 M23/M26 A3029 RMK AO1 SLP353
SPECI CYNL 172009Z AUTO ///// 2 1/2SM VV009 M23/M26 A3029 RMK AO1 SLP353
SPECI CYNL 172007Z AUTO ///// 3SM VV010 M23/M26 A3029 RMK AO1 SLP353
METAR CYNL 172000Z AUTO ///// 2 1/2SM VV011 M23/M26 A3029 RMK AO1 SLP353
SPECI CYNL 171955Z AUTO ///// 2SM VV011 M23/M26 A3029 RMK AO1 SLP355
SPECI CYNL 171953Z AUTO ///// 1 3/4SM VV011 M23/M26 A3029 RMK AO1 SLP355
SPECI CYNL 171950Z AUTO ///// 2SM VV011 M23/M26 A3029 RMK AO1 SLP355
SPECI CYNL 171934Z AUTO ///// 1 1/2SM VV012 M23/M27 A3029 RMK AO1 SLP355
SPECI CYNL 171932Z AUTO ///// 1 1/4SM VV012 M23/M27 A3029 RMK AO1 SLP355
SPECI CYNL 171923Z AUTO ///// 1 3/4SM VV014 M23/M27 A3029 RMK AO1 SLP356
SPECI CYNL 171922Z AUTO ///// 2SM VV015 M23/M27 A3029 RMK AO1 SLP356
SPECI CYNL 171921Z AUTO ///// 2SM VV014 M23/M27 A3029 RMK AO1 SLP356
SPECI CYNL 171904Z AUTO ///// 2 1/2SM VV017 M24/M27 A3029 RMK AO1 SLP357
METAR CYNL 171900Z AUTO ///// 3SM VV015 M24/M27 A3030 RMK AO1 SLP358
SPECI CYNL 171859Z AUTO ///// 3SM VV014 M24/M27 A3030 RMK AO1 SLP359
SPECI CYNL 171850Z AUTO ///// 3SM VV015 M24/M28 A3030 RMK AO1 SLP360
SPECI CYNL 171846Z AUTO ///// 3SM VV014 M24/M28 A3030 RMK AO1 SLP361
SPECI CYNL 171843Z AUTO ///// 2 1/2SM VV014 M24/M28 A3030 RMK AO1 SLP361
SPECI CYNL 171841Z AUTO ///// 3SM VV015 M24/M28 A3030 RMK AO1 SLP361
SPECI CYNL 171839Z AUTO ///// 2 1/2SM VV016 M24/M28 A3030 RMK AO1 SLP361
SPECI CYNL 171838Z AUTO ///// 3SM VV016 M24/M28 A3030 RMK AO1 SLP361
SPECI CYNL 171835Z AUTO ///// 2 1/2SM VV016 M24/M28 A3030 RMK AO1 SLP361
SPECI CYNL 171830Z AUTO ///// 3SM VV016 M24/M28 A3030 RMK AO1 SLP361
SPECI CYNL 171821Z AUTO ///// 2SM VV015 M24/M28 A3030 RMK AO1 SLP361
SPECI CYNL 171819Z AUTO ///// 1 3/4SM VV016 M24/M28 A3030 RMK AO1 SLP362
SPECI CYNL 171803Z AUTO ///// 2 1/2SM VV015 M25/M28 A3030 RMK AO1 SLP364
METAR CYNL 171800Z AUTO ///// 2 1/2SM VV013 M25/M28 A3031 RMK AO1 SLP364
SPECI CYNL 171759Z AUTO ///// 3SM VV013 M25/M28 A3031 RMK AO1 SLP364
SPECI CYNL 171751Z AUTO ///// 2 1/2SM VV014 M25/M29 A3031 RMK AO1 SLP365
SPECI CYNL 171744Z AUTO ///// 2 1/2SM VV015 M25/M29 A3031 RMK AO1 SLP366
SPECI CYNL 171743Z AUTO ///// 3SM VV015 M25/M29 A3031 RMK AO1 SLP366
SPECI CYNL 171742Z AUTO ///// 2 1/2SM VV015 M25/M29 A3031 RMK AO1 SLP366
SPECI CYNL 171741Z AUTO ///// 2 1/2SM VV014 M25/M29 A3031 RMK AO1 SLP366
SPECI CYNL 171740Z AUTO ///// 2 1/2SM VV015 M25/M29 A3031 RMK AO1 SLP366
SPECI CYNL 171739Z AUTO ///// 2 1/2SM VV014 M25/M29 A3031 RMK AO1 SLP366
SPECI CYNL 171737Z AUTO ///// 3SM VV015 M25/M29 A3031 RMK AO1 SLP366
SPECI CYNL 171734Z AUTO ///// 3SM VV014 M25/M29 A3030 RMK AO1 SLP365
SPECI CYNL 171732Z AUTO ///// 3SM VV015 M25/M29 A3030 RMK AO1 SLP365
SPECI CYNL 171730Z AUTO ///// 2 1/2SM VV015 M25/M29 A3030 RMK AO1 SLP365
SPECI CYNL 171727Z AUTO ///// 4SM VV015 M25/M29 A3031 RMK AO1 SLP366
SPECI CYNL 171721Z AUTO 07003KT 3SM VV013 M25/M29 A3030 RMK AO1 SLP365
SPECI CYNL 171714Z AUTO ///// 2 1/2SM VV014 M25/M29 A3030 RMK AO1 SLP365
SPECI CYNL 171713Z AUTO ///// 2 1/2SM VV015 M25/M29 A3030 RMK AO1 SLP365
SPECI CYNL 171710Z AUTO ///// 3SM VV015 M25/M29 A3030 RMK AO1 SLP365
SPECI CYNL 171707Z AUTO ///// 3SM VV014 M25/M29 A3030 RMK AO1 SLP365
SPECI CYNL 171702Z AUTO ///// 2 1/2SM VV014 M25/M29 A3030 RMK AO1 SLP365
SPECI CYNL 171701Z AUTO ///// 2 1/2SM VV015 M25/M29 A3030 RMK AO1 SLP365
METAR CYNL 171700Z AUTO ///// 3SM VV016 M25/M29 A3030 RMK AO1 SLP365
SPECI CYNL 171655Z AUTO ///// 3SM VV016 M26/M29 A3030 RMK AO1 SLP365
SPECI CYNL 171648Z AUTO 05003KT 2SM VV013 M26/M29 A3030 RMK AO1 SLP365
SPECI CYNL 171646Z AUTO 06003KT 1 3/4SM VV013 M26/M30 A3030 RMK AO1 SLP365
SPECI CYNL 171620Z AUTO ///// 2 1/2SM VV013 M26/M30 A3031 RMK AO1 SLP367
SPECI CYNL 171614Z AUTO ///// 3SM VV013 M26/M30 A3030 RMK AO1 SLP366
SPECI CYNL 171610Z AUTO ///// 2 1/2SM VV013 M26/M30 A3030 RMK AO1 SLP366
SPECI CYNL 171607Z AUTO ///// 3SM VV014 M26/M30 A3031 RMK AO1 SLP367
SPECI CYNL 171604Z AUTO ///// 3SM VV015 M26/M30 A3031 RMK AO1 SLP367
SPECI CYNL 171603Z AUTO ///// 2 1/2SM VV015 M26/M30 A3031 RMK AO1 SLP367
SPECI CYNL 171602Z AUTO ///// 3SM VV015 M26/M30 A3031 RMK AO1 SLP367
METAR CYNL 171600Z AUTO ///// 3SM VV014 M26/M30 A3031 RMK AO1 SLP367
SPECI CYNL 171557Z AUTO ///// 3SM VV014 M26/M30 A3030 RMK AO1 SLP367
SPECI CYNL 171549Z AUTO ///// 3SM VV015 M26/M30 A3030 RMK AO1 SLP365
SPECI CYNL 171546Z AUTO ///// 2 1/2SM VV014 M26/M30 A3030 RMK AO1 SLP366
SPECI CYNL 171544Z AUTO ///// 2 1/2SM VV015 M26/M30 A3030 RMK AO1 SLP366
SPECI CYNL 171543Z AUTO 00000KT 3SM VV015 M26/M30 A3030 RMK AO1 SLP366
SPECI CYNL 171542Z AUTO 00000KT 2 1/2SM VV016 M26/M30 A3030 RMK AO1 SLP366
SPECI CYNL 171532Z AUTO ///// 3SM VV015 M27/M31 A3030 RMK AO1 SLP365
SPECI CYNL 171529Z AUTO ///// 3SM VV014 M27/M31 A3030 RMK AO1 SLP365
SPECI CYNL 171512Z AUTO ///// 4SM VV015 M27/M31 A3030 RMK AO1 SLP366
SPECI CYNL 171507Z AUTO ///// 3SM VV014 M27/M31 A3030 RMK AO1 SLP367
METAR CYNL 171500Z AUTO ///// 3SM VV016 M27/M31 A3030 RMK AO1 SLP366
SPECI CYNL 171457Z AUTO ///// 3SM VV016 M27/M31 A3030 RMK AO1 SLP366
SPECI CYNL 171456Z AUTO ///// 2 1/2SM VV016 M27/M31 A3030 RMK AO1 SLP366
SPECI CYNL 171448Z AUTO ///// 3SM VV016 M27/M31 A3030 RMK AO1 SLP366
SPECI CYNL 171444Z AUTO 11003KT 2 1/2SM VV015 M27/M31 A3030 RMK AO1 SLP366
SPECI CYNL 171429Z AUTO ///// 2SM VV011 M27/M31 A3030 RMK AO1 SLP365
SPECI CYNL 171422Z AUTO 07003KT 1 3/4SM VV012 M27/M31 A3029 RMK AO1 SLP365
METAR CYNL 171400Z AUTO 07003KT 2SM VV012 M28/M32 A3029 RMK AO1 SLP365
SPECI CYNL 171351Z AUTO 06004KT 2SM VV012 M28/M32 A3029 RMK AO1 SLP364
SPECI CYNL 171343Z AUTO 06004KT 1 3/4SM VV013 M28/M32 A3029 RMK AO1 SLP364
SPECI CYNL 171336Z AUTO 07003KT 2 1/2SM VV011 M28/M32 A3029 RMK AO1 SLP364
SPECI CYNL 171333Z AUTO 07003KT 4SM VV010 M28/M32 A3029 RMK AO1 SLP364
SPECI CYNL 171330Z AUTO 07003KT 6SM FEW009 M28/M32 A3029 RMK AO1 SLP363
METAR CYNL 171300Z AUTO 07005KT 9SM CLR M28/M32 A3029 RMK AO1 SLP363
METAR CYNL 171200Z AUTO 07003KT 9SM CLR M28/M32 A3030 RMK AO1 SLP366
METAR CYNL 171100Z AUTO 07003KT 9SM CLR M29/M33 A3031 RMK AO1 SLP370
METAR CYNL 171000Z AUTO ///// 9SM CLR M30/M34 A3033 RMK AO1 SLP376
METAR CYNL 170900Z AUTO 13004KT 9SM CLR M30/M35 A3034 RMK AO1 SLP381
METAR CYNL 170800Z AUTO 00000KT 9SM CLR M31/M35 A3036 RMK AO1 SLP388
METAR CYNL 170700Z AUTO 00000KT 9SM FEW003 M32/M37 A3037 RMK AO1 SLP395
SPECI CYNL 170649Z AUTO 00000KT 9SM SCT002 M32/M37 A3038 RMK AO1 SLP398
SPECI CYNL 170643Z AUTO ///// 9SM BKN002 M32/M37 A3038 RMK AO1 SLP399
SPECI CYNL 170633Z AUTO 17003KT 9SM VV003 M32/M37 A3038 RMK AO1 SLP400
METAR CYNL 170600Z AUTO 00000KT 9SM VV002 M33/M37 A3038 RMK AO1 SLP400
SPECI CYNL 170558Z AUTO 00000KT 9SM VV002 M33/M37 A3038 RMK AO1 SLP402
SPECI CYNL 170547Z AUTO 05003KT 9SM SCT002 OVC130 M33/M37 A3038 RMK AO1 PRESFR SLP400
SPECI CYNL 170545Z AUTO 00000KT 9SM VV002 M33/M37 A3038 RMK AO1 PRESFR SLP400
SPECI CYNL 170544Z AUTO 00000KT 9SM SCT002 OVC130 M33/M37 A3038 RMK AO1 PRESFR SLP400
SPECI CYNL 170541Z AUTO 00000KT 9SM VV002 M33/M37 A3038 RMK AO1 PRESFR SLP400
SPECI CYNL 170514Z AUTO 00000KT 9SM SCT002 BKN130 M33/M37 A3038 RMK AO1 PRESFR SLP402
SPECI CYNL 170508Z AUTO 00000KT 9SM VV002 M33/M37 A3038 RMK AO1 PRESFR SLP401
METAR CYNL 170500Z AUTO 04003KT 9SM FEW002 SCT130 M33/M37 A3038 RMK AO1 PRESFR SLP401
SPECI CYNL 170455Z AUTO 04003KT 9SM SCT002 BKN130 M33/M37 A3038 RMK AO1 SLP404
SPECI CYNL 170451Z AUTO 00000KT 9SM VV002 M32/M37 A3039 RMK AO1 SLP405
METAR CYNL 170400Z AUTO 00000KT 9SM FEW002 OVC140 M33/M37 A3040 RMK AO1 SLP412
SPECI CYNL 170323Z AUTO 16003KT 9SM SCT002 BKN140 M33/M37 A3040 RMK AO1 SLP412
SPECI CYNL 170311Z AUTO 00000KT 9SM VV002 M33/M37 A3040 RMK AO1 SLP411
SPECI CYNL 170301Z AUTO 00000KT 9SM SCT002 M33/M37 A3040 RMK AO1 SLP410
METAR CYNL 170300Z AUTO 00000KT 9SM VV002 M33/M37 A3040 RMK AO1 SLP410
SPECI CYNL 170256Z AUTO 00000KT 9SM VV002 M33/M37 A3040 RMK AO1 PRESFR SLP410
SPECI CYNL 170252Z AUTO 00000KT 9SM FEW002 M33/M37 A3040 RMK AO1 PRESFR SLP411
METAR CYNL 170200Z AUTO 03003KT 9SM CLR M33/M37 A3041 RMK AO1 PRESFR SLP413
METAR CYNL 170100Z AUTO 29002KT 9SM CLR M32/M36 A3043 RMK AO1 SLP422
METAR CYNL 170000Z AUTO 30003KT 9SM CLR M31/M35 A3045 RMK AO1 SLP425
METAR CYNL 162300Z AUTO 24002KT 9SM CLR M30/M34 A3046 RMK AO1 SLP426
METAR CYNL 162200Z AUTO 28002KT 9SM CLR M29/M34 A3045 RMK AO1 SLP421
METAR CYNL 162100Z AUTO 25003KT 9SM CLR M30/M34 A3046 RMK AO1 SLP425
METAR CYNL 162000Z AUTO 27003KT 9SM CLR M30/M34 A3045 RMK AO1 SLP424
METAR CYNL 161900Z AUTO 32004KT 9SM CLR M31/M35 A3045 RMK AO1 PRESFR SLP426
METAR CYNL 161800Z AUTO ///// 9SM CLR M32/M36 A3048 RMK AO1 SLP435
METAR CYNL 161700Z AUTO ///// 9SM CLR M33/M38 A3049 RMK AO1 PRESRR SLP443
METAR CYNL 161600Z AUTO 29005KT 9SM CLR M33/M38 A3046 RMK AO1 SLP432
METAR CYNL 161500Z AUTO 30006KT 9SM CLR M34/M38 A3047 RMK AO1 SLP433
METAR CYNL 161400Z AUTO ///// 9SM CLR M34/M38 A3047 RMK AO1 SLP435
METAR CYNL 161300Z AUTO 27006KT 8SM CLR M33/M38 A3047 RMK AO1 SLP434
METAR CYNL 161200Z AUTO 30007KT 9SM CLR M33/M38 A3046 RMK AO1 SLP432
METAR CYNL 161100Z AUTO 28006KT 9SM CLR M33/M38 A3045 RMK AO1 SLP428
METAR CYNL 161000Z AUTO ///// 8SM CLR M33/M38 A3044 RMK AO1 SLP424
METAR CYNL 160900Z AUTO ///// 9SM CLR M33/M37 A3043 RMK AO1 SLP418
METAR CYNL 160800Z AUTO ///// 7SM CLR M33/M37 A3042 RMK AO1 SLP415
METAR CYNL 160700Z AUTO ///// 5SM CLR M32/M37 A3042 RMK AO1 SLP413
METAR CYNL 160600Z AUTO ///// 6SM CLR M32/M37 A3041 RMK AO1 SLP410
METAR CYNL 160500Z AUTO ///// 7SM CLR M32/M37 A3039 RMK AO1 SLP406
METAR CYNL 160400Z AUTO ///// 9SM FEW074 M32/M37 A3040 RMK AO1 SLP408
METAR CYNL 160300Z AUTO ///// 6SM CLR M32/M37 A3039 RMK AO1 SLP412
METAR CYNL 160200Z AUTO ///// 9SM CLR M32/M37 A3039 RMK AO1 SLP413
SPECI CYNL 160116Z AUTO ///// 9SM SCT005 M32/M37 A3039 RMK AO1 SLP411
METAR CYNL 160100Z AUTO ///// 9SM VV005 M32/M37 A3039 RMK AO1 SLP411
SPECI CYNL 160045Z AUTO 28004KT 9SM VV005 M32/M37 A3039 RMK AO1 SLP410
SPECI CYNL 160018Z AUTO 28005KT 9SM SCT004 M33/M37 A3038 RMK AO1 SLP408
SPECI CYNL 160014Z AUTO 28004KT 8SM VV004 M33/M37 A3038 RMK AO1 SLP408
SPECI CYNL 160009Z AUTO ///// 8SM FEW004 M33/M37 A3038 RMK AO1 SLP407
METAR CYNL 160000Z AUTO ///// 9SM CLR M33/M37 A3038 RMK AO1 SLP408
SPECI CYNL 152251Z AUTO ///// 9SM SCT005 M32/M37 A3037 RMK AO1 SLP406
SPECI CYNL 152242Z AUTO ///// 9SM VV005 M32/M37 A3037 RMK AO1 SLP406
SPECI CYNL 152223Z AUTO ///// 9SM SCT005 M32/M37 A3037 RMK AO1 SLP405
SPECI CYNL 152221Z AUTO ///// 9SM SCT005 BKN019 M32/M37 A3036 RMK AO1 SLP405
SPECI CYNL 152215Z AUTO ///// 9SM FEW005 BKN019 M32/M37 A3037 RMK AO1 SLP405
METAR CYNL 152200Z AUTO ///// 9SM FEW005 SCT019 M32/M36 A3036 RMK AO1 SLP403
SPECI CYNL 152145Z AUTO ///// 9SM SCT005 M32/M36 A3036 RMK AO1 SLP400
SPECI CYNL 152139Z AUTO ///// 9SM BKN005 M32/M36 A3036 RMK AO1 SLP400
SPECI CYNL 152109Z AUTO ///// 9SM SCT006 M31/M36 A3035 RMK AO1 SLP399
SPECI CYNL 152108Z AUTO ///// 9SM SCT006 BKN029 M31/M36 A3035 RMK AO1 SLP399
METAR CYNL 152100Z AUTO ///// 9SM VV006 M31/M36 A3035 RMK AO1 SLP399
METAR CYNL 152000Z AUTO ///// 9SM OVC006 M31/M35 A3034 RMK AO1 SLP392
METAR CYNL 151900Z AUTO ///// 9SM OVC006 M31/M35 A3032 RMK AO1 SLP385
METAR CYNL 151800Z AUTO ///// 9SM OVC006 M32/M36 A3033 RMK AO1 SLP387
SPECI CYNL 151741Z AUTO 31004KT 9SM BKN006 M32/M37 A3033 RMK AO1 SLP390
METAR CYNL 151700Z AUTO 31005KT 9SM FEW006 M34/M38 A3033 RMK AO1 SLP390
SPECI CYNL 151641Z AUTO ///// 9SM SCT006 M34/M39 A3033 RMK AO1 SLP391
SPECI CYNL 151638Z AUTO 32006KT 9SM VV006 M34/M39 A3033 RMK AO1 SLP391
SPECI CYNL 151633Z AUTO 32005KT 9SM FEW006 M35/M39 A3032 RMK AO1 SLP390
METAR CYNL 151600Z AUTO 29003KT 9SM CLR M37/M42 A3032 RMK AO1 SLP393
METAR CYNL 151500Z AUTO 28002KT 9SM CLR M37/M42 A3030 RMK AO1 SLP388
METAR CYNL 151400Z AUTO 27003KT 9SM CLR M37/M42 A3030 RMK AO1 SLP386
METAR CYNL 151300Z AUTO 32006KT 9SM CLR M37/M42 A3029 RMK AO1 SLP382
METAR CYNL 151200Z AUTO 29003KT 9SM CLR M37/M42 A3029 RMK AO1 SLP378
METAR CYNL 151100Z AUTO 32004KT 9SM CLR M38/M43 A3029 RMK AO1 SLP380
METAR CYNL 151000Z AUTO 29003KT 9SM CLR M37/M43 A3028 RMK AO1 SLP373
METAR CYNL 150900Z AUTO 32003KT 9SM CLR M36/M42 A3027 RMK AO1 SLP367
METAR CYNL 150800Z AUTO 33004KT 9SM CLR M36/M41 A3027 RMK AO1 SLP363
METAR CYNL 150700Z AUTO 31004KT 9SM CLR M35/M40 A3027 RMK AO1 SLP363
METAR CYNL 150600Z AUTO 33006KT 9SM CLR M35/M40 A3026 RMK AO1 SLP363
SPECI CYNL 150511Z AUTO 32003KT 9SM FEW004 SCT007 M35/M40 A3025 RMK AO1 SLP359
SPECI CYNL 150504Z AUTO 33002KT 7SM FEW004 SCT008 BKN019 M35/M40 A3024 RMK AO1 SLP359
SPECI CYNL 150503Z AUTO 32003KT 6SM FEW004 SCT019 M35/M40 A3024 RMK AO1 SLP358
METAR CYNL 150500Z AUTO 32003KT 5SM FEW004 SCT010 BKN019 M35/M40 A3024 RMK AO1 SLP357
SPECI CYNL 150455Z AUTO 32004KT 6SM SCT006 BKN019 M35/M40 A3024 RMK AO1 SLP359
SPECI CYNL 150452Z AUTO 32003KT 5SM VV006 M35/M40 A3024 RMK AO1 SLP359
SPECI CYNL 150431Z AUTO 00000KT 9SM SCT006 BKN019 M36/M41 A3025 RMK AO1 SLP360
SPECI CYNL 150430Z AUTO 00000KT 9SM SCT006 BKN012 M36/M41 A3024 RMK AO1 SLP360
SPECI CYNL 150421Z AUTO 00000KT 9SM VV006 M36/M41 A3024 RMK AO1 SLP359
SPECI CYNL 150408Z AUTO 31004KT 9SM FEW005 SCT018 M36/M41 A3023 RMK AO1 SLP357
METAR CYNL 150400Z AUTO 30003KT 9SM SCT018 M36/M41 A3023 RMK AO1 SLP356
SPECI CYNL 150349Z AUTO 29004KT 9SM BKN018 M36/M41 A3023 RMK AO1 SLP355
METAR CYNL 150300Z AUTO 29004KT 9SM CLR M36/M41 A3023 RMK AO1 SLP354
METAR CYNL 150200Z AUTO 00000KT 9SM CLR M35/M40 A3022 RMK AO1 SLP349
METAR CYNL 150100Z AUTO 32003KT 9SM CLR M34/M39 A3022 RMK AO1 SLP348
METAR CYNL 150000Z AUTO 33004KT 9SM CLR M34/M39 A3021 RMK AO1 SLP345
SPECI CYNL 142301Z AUTO 29003KT 9SM SCT008 M32/M37 A3020 RMK AO1 SLP340
METAR CYNL 142300Z AUTO 30003KT 9SM BKN008 M32/M37 A3020 RMK AO1 SLP340
SPECI CYNL 142237Z AUTO 31002KT 9SM BKN009 M32/M37 A3020 RMK AO1 SLP339
SPECI CYNL 142236Z AUTO 31002KT 9SM SCT009 BKN010 M32/M37 A3020 RMK AO1 SLP338
SPECI CYNL 142234Z AUTO 30003KT 9SM BKN009 M32/M36 A3020 RMK AO1 SLP338
SPECI CYNL 142233Z AUTO 30003KT 9SM SCT009 M32/M36 A3020 RMK AO1 SLP338
SPECI CYNL 142221Z AUTO 32003KT 9SM BKN009 M31/M36 A3019 RMK AO1 SLP336
SPECI CYNL 142219Z AUTO 31003KT 9SM SCT009 BKN010 M31/M36 A3019 RMK AO1 SLP335
SPECI CYNL 142212Z AUTO 32003KT 8SM FEW009 M31/M35 A3019 RMK AO1 SLP335
METAR CYNL 142200Z AUTO 32004KT 9SM CLR M30/M35 A3019 RMK AO1 SLP334
METAR CYNL 142100Z AUTO 33004KT 9SM CLR M30/M34 A3018 RMK AO1 SLP329
METAR CYNL 142000Z AUTO 32003KT 9SM CLR M30/M34 A3018 RMK AO1 SLP327
METAR CYNL 141900Z AUTO 33003KT 9SM FEW026 M32/M36 A3018 RMK AO1 SLP327
SPECI CYNL 141843Z AUTO 30003KT 9SM SCT027 M31/M36 A3018 RMK AO1 SLP327
SPECI CYNL 141825Z AUTO 30003KT 9SM BKN027 M31/M36 A3018 RMK AO1 SLP328
METAR CYNL 141800Z AUTO 31004KT 9SM CLR M32/M36 A3018 RMK AO1 SLP329
SPECI CYNL 141706Z AUTO 31004KT 9SM SCT006 M33/M37 A3018 RMK AO1 SLP329
METAR CYNL 141700Z AUTO 32003KT 9SM BKN006 M32/M37 A3018 RMK AO1 SLP329
SPECI CYNL 141646Z AUTO 32003KT 8SM BKN006 M32/M37 A3018 RMK AO1 SLP329
SPECI CYNL 141619Z AUTO 33003KT 3SM FEW003 M32/M37 A3018 RMK AO1 SLP326
SPECI CYNL 141616Z AUTO 33003KT 2 1/2SM FEW002 M32/M37 A3018 RMK AO1 SLP327
METAR CYNL 141600Z AUTO 34003KT 9SM FEW006 M32/M37 A3017 RMK AO1 SLP326
SPECI CYNL 141548Z AUTO 32003KT 4SM FEW004 SCT014 M32/M36 A3017 RMK AO1 SLP325
SPECI CYNL 141546Z AUTO 31003KT 2 1/2SM FEW004 SCT014 M32/M36 A3017 RMK AO1 SLP324
SPECI CYNL 141543Z AUTO 32003KT 9SM FEW006 SCT014 M32/M36 A3017 RMK AO1 SLP325
SPECI CYNL 141538Z AUTO 30003KT 5SM SCT014 M32/M36 A3017 RMK AO1 SLP325
SPECI CYNL 141517Z AUTO 00000KT 7SM OVC014 M32/M36 A3017 RMK AO1 SLP323
SPECI CYNL 141514Z AUTO 00000KT 2 1/2SM OVC014 M32/M36 A3017 RMK AO1 SLP324
METAR CYNL 141500Z AUTO 00000KT 6SM OVC014 M32/M36 A3016 RMK AO1 SLP322
SPECI CYNL 141452Z AUTO ///// 9SM OVC015 M32/M37 A3016 RMK AO1 SLP323
SPECI CYNL 141440Z AUTO ///// 9SM SCT006 OVC014 M32/M37 A3015 RMK AO1 SLP320
SPECI CYNL 141433Z AUTO ///// 9SM SCT006 OVC015 M32/M37 A3015 RMK AO1 SLP320
METAR CYNL 141400Z AUTO 00005KT 8SM OVC007 M32/M37 A3016 RMK AO1 SLP324
SPECI CYNL 141328Z AUTO 00004KT 9SM SCT004 OVC006 M33/M37 A3016 RMK AO1 SLP326
SPECI CYNL 141327Z AUTO 00005KT 9SM BKN004 OVC006 M33/M37 A3016 RMK AO1 SLP326
SPECI CYNL 141326Z AUTO 00005KT 9SM OVC005 M33/M37 A3016 RMK AO1 SLP326
METAR CYNL 141300Z AUTO 34003KT 9SM BKN003 OVC006 M33/M37 A3017 RMK AO1 SLP327
METAR CYNL 141200Z AUTO 35002KT 9SM OVC005 M33/M38 A3016 RMK AO1 SLP325
METAR CYNL 141100Z AUTO 00003KT 9SM VV006 M33/M37 A3016 RMK AO1 SLP323
SPECI CYNL 141054Z AUTO 00003KT 9SM VV006 M33/M37 A3016 RMK AO1 SLP321
SPECI CYNL 141048Z AUTO 35003KT 9SM FEW006 M33/M37 A3016 RMK AO1 SLP320
METAR CYNL 141000Z AUTO 34004KT 9SM CLR M32/M36 A3016 RMK AO1 SLP321
METAR CYNL 140900Z AUTO 34003KT 9SM CLR M31/M35 A3016 RMK AO1 SLP318
METAR CYNL 140800Z AUTO 34003KT 9SM CLR M30/M34 A3016 RMK AO1 SLP312
METAR CYNL 140700Z AUTO ///// 9SM CLR M30/M34 A3015 RMK AO1 SLP308
METAR CYNL 140600Z AUTO ///// 9SM CLR M30/M34 A3015 RMK AO1 SLP311
METAR CYNL 140500Z AUTO 01003KT 9SM CLR M30/M34 A3015 RMK AO1 SLP309
METAR CYNL 140400Z AUTO ///// 9SM CLR M30/M34 A3014 RMK AO1 SLP308
METAR CYNL 140300Z AUTO ///// 9SM FEW140 M30/M35 A3014 RMK AO1 SLP312
METAR CYNL 140200Z AUTO ///// 8SM CLR M32/M36 A3015 RMK AO1 SLP315
METAR CYNL 140100Z AUTO 32003KT 9SM CLR M32/M36 A3014 RMK AO1 SLP314
METAR CYNL 140000Z AUTO 28003KT 9SM CLR M31/M35 A3013 RMK AO1 SLP309
METAR CYNL 132300Z AUTO 33002KT 9SM CLR M29/M34 A3012 RMK AO1 SLP298
METAR CYNL 132200Z AUTO 00000KT 9SM CLR M28/M32 A3010 RMK AO1 PRESRR SLP289
METAR CYNL 132100Z AUTO ///// 9SM CLR M27/M31 A3008 RMK AO1 SLP277
METAR CYNL 132000Z AUTO ///// 9SM CLR M24/M28 A3007 RMK AO1 SLP271
METAR CYNL 131900Z AUTO ///// 9SM CLR M26/M30 A3008 RMK AO1 SLP275
METAR CYNL 131800Z AUTO 29005KT 9SM CLR M27/M31 A3008 RMK AO1 SLP275
METAR CYNL 131700Z AUTO ///// 9SM CLR M28/M32 A3006 RMK AO1 SLP270
METAR CYNL 131600Z AUTO 00000KT 9SM CLR M29/M33 A3004 RMK AO1 PRESRR SLP267
SPECI CYNL 131551Z AUTO 33003KT 4SM CLR M29/M33 A3004 RMK AO1 SLP266
SPECI CYNL 131549Z AUTO 34003KT 2SM CLR M29/M33 A3004 RMK AO1 SLP265
SPECI CYNL 131547Z AUTO 34003KT 1 3/4SM CLR M29/M33 A3004 RMK AO1 SLP264
SPECI CYNL 131546Z AUTO 34002KT 2SM CLR M29/M33 A3004 RMK AO1 SLP264
METAR CYNL 131500Z AUTO ///// 9SM CLR M29/M33 A3002 RMK AO1 SLP259
METAR CYNL 131400Z AUTO ///// 9SM CLR M30/M34 A3001 RMK AO1 SLP258
METAR CYNL 131300Z AUTO 30003KT 9SM CLR M29/M33 A3001 RMK AO1 SLP255
METAR CYNL 131200Z AUTO 31002KT 9SM CLR M27/M31 A3000 RMK AO1 SLP250
METAR CYNL 131100Z AUTO 31002KT 9SM CLR M26/M29 A3000 RMK AO1 SLP247
SPECI CYNL 131021Z AUTO 33003KT 7SM SCT006 M24/M28 A3000 RMK AO1 SLP245
SPECI CYNL 131012Z AUTO 31002KT 7SM VV006 M24/M28 A3000 RMK AO1 SLP246
METAR CYNL 131000Z AUTO 00000KT 9SM FEW006 M24/M27 A3000 RMK AO1 SLP246
SPECI CYNL 130940Z AUTO ///// 7SM SCT006 BKN070 M24/M27 A3000 RMK AO1 SLP244
SPECI CYNL 130904Z AUTO 00000KT 9SM VV007 M23/M27 A2999 RMK AO1 SLP243
METAR CYNL 130900Z AUTO 00002KT 7SM SCT008 BKN068 M23/M27 A2999 RMK AO1 SLP242
SPECI CYNL 130858Z AUTO 00002KT 9SM FEW008 BKN068 M23/M27 A2999 RMK AO1 SLP242
SPECI CYNL 130857Z AUTO 00002KT 9SM VV008 M23/M27 A2999 RMK AO1 SLP242
SPECI CYNL 130851Z AUTO ///// 9SM FEW008 BKN066 M23/M27 A2999 RMK AO1 SLP242
METAR CYNL 130800Z AUTO ///// 9SM OVC064 M23/M27 A2999 RMK AO1 SLP242
METAR CYNL 130700Z AUTO ///// 9SM OVC070 M23/M27 A2998 RMK AO1 SLP237
SPECI CYNL 130620Z AUTO ///// 5SM FEW009 SCT012 OVC072 M23/M26 A2998 RMK AO1 SLP237
SPECI CYNL 130618Z AUTO ///// 4SM FEW008 SCT012 BKN019 M23/M26 A2998 RMK AO1 SLP236
SPECI CYNL 130613Z AUTO ///// 4SM FEW008 BKN011 BKN019 M23/M26 A2998 RMK AO1 SLP237
SPECI CYNL 130603Z AUTO ///// 4SM VV014 M23/M26 A2998 RMK AO1 SLP237
METAR CYNL 130600Z AUTO ///// 5SM VV017 M23/M26 A2998 RMK AO1 SLP237
SPECI CYNL 130557Z AUTO ///// 7SM VV015 M23/M26 A2997 RMK AO1 SLP238
SPECI CYNL 130554Z AUTO ///// 7SM VV011 M23/M26 A2998 RMK AO1 SLP238
SPECI CYNL 130531Z AUTO ///// 5SM VV009 M23/M26 A2998 RMK AO1 SLP239
SPECI CYNL 130510Z AUTO ///// 7SM VV010 M23/M26 A2998 RMK AO1 SLP239
SPECI CYNL 130503Z AUTO 05003KT 3SM VV008 M23/M26 A2998 RMK AO1 SLP239
SPECI CYNL 130502Z AUTO 05003KT 2SM VV008 M23/M26 A2998 RMK AO1 SLP239
SPECI CYNL 130501Z AUTO 04003KT 1 1/2SM VV009 M23/M26 A2998 RMK AO1 SLP239
METAR CYNL 130500Z AUTO 04003KT 1 1/4SM VV009 M23/M26 A2998 RMK AO1 SLP239
SPECI CYNL 130455Z AUTO 05003KT 1 1/4SM VV013 M23/M26 A2998 RMK AO1 SLP241
SPECI CYNL 130454Z AUTO 05003KT 1 1/2SM VV014 M23/M26 A2998 RMK AO1 SLP241
SPECI CYNL 130453Z AUTO 05003KT 1 3/4SM VV015 M23/M26 A2998 RMK AO1 SLP241
SPECI CYNL 130448Z AUTO 05002KT 2 1/2SM VV019 M23/M26 A2998 RMK AO1 SLP240
SPECI CYNL 130440Z AUTO ///// 5SM VV015 M23/M26 A2998 RMK AO1 SLP240
SPECI CYNL 130435Z AUTO ///// 5SM VV010 M23/M26 A2998 RMK AO1 SLP240
SPECI CYNL 130429Z AUTO ///// 3SM VV007 M23/M26 A2997 RMK AO1 SLP239
SPECI CYNL 130426Z AUTO ///// 2SM VV009 M23/M26 A2997 RMK AO1 SLP239
SPECI CYNL 130421Z AUTO ///// 2 1/2SM VV014 M23/M26 A2997 RMK AO1 SLP239
SPECI CYNL 130414Z AUTO ///// 2 1/2SM VV015 M23/M26 A2998 RMK AO1 SLP240
SPECI CYNL 130405Z AUTO ///// 2SM VV012 M23/M26 A2998 RMK AO1 SLP240
METAR CYNL 130400Z AUTO ///// 1 1/2SM VV012 M23/M27 A2998 RMK AO1 SLP240
SPECI CYNL 130357Z AUTO 05003KT 1 3/4SM VV013 M23/M27 A2998 RMK AO1 SLP242
SPECI CYNL 130349Z AUTO ///// 2SM VV010 M23/M27 A2998 RMK AO1 SLP242
SPECI CYNL 130348Z AUTO ///// 2SM VV009 M23/M27 A2998 RMK AO1 SLP242
SPECI CYNL 130343Z AUTO ///// 1 1/2SM VV009 M23/M27 A2998 RMK AO1 SLP242
SPECI CYNL 130333Z AUTO ///// 1 3/4SM VV013 M23/M27 A2998 RMK AO1 SLP242
SPECI CYNL 130321Z AUTO ///// 2SM VV010 M23/M27 A2998 RMK AO1 SLP243
SPECI CYNL 130320Z AUTO ///// 1 3/4SM VV009 M23/M27 A2998 RMK AO1 SLP243
SPECI CYNL 130318Z AUTO ///// 1 3/4SM VV010 M23/M27 A2998 RMK AO1 SLP243
SPECI CYNL 130307Z AUTO ///// 2 1/2SM VV014 M23/M27 A2998 RMK AO1 SLP242
METAR CYNL 130300Z AUTO ///// 5SM VV017 M23/M27 A2998 RMK AO1 SLP242
SPECI CYNL 130259Z AUTO ///// 6SM FEW009 BKN016 M23/M27 A2998 RMK AO1 SLP243
SPECI CYNL 130251Z AUTO ///// 9SM FEW006 SCT012 M23/M27 A2998 RMK AO1 SLP244
SPECI CYNL 130244Z AUTO ///// 6SM FEW007 SCT012 BKN019 M23/M27 A2998 RMK AO1 SLP244
SPECI CYNL 130242Z AUTO ///// 3SM VV009 M23/M27 A2998 RMK AO1 SLP243
SPECI CYNL 130240Z AUTO ///// 2SM VV011 M23/M27 A2998 RMK AO1 SLP243
SPECI CYNL 130237Z AUTO ///// 1 1/2SM VV012 M23/M27 A2998 RMK AO1 SLP243
SPECI CYNL 130233Z AUTO ///// 1 1/4SM VV014 M23/M27 A2998 RMK AO1 SLP243
SPECI CYNL 130232Z AUTO ///// 1 1/2SM VV014 M23/M27 A2998 RMK AO1 SLP243
SPECI CYNL 130231Z AUTO ///// 1 3/4SM VV015 M23/M27 A2998 RMK AO1 SLP243
SPECI CYNL 130221Z AUTO ///// 2 1/2SM VV019 M23/M27 A2998 RMK AO1 SLP245
SPECI CYNL 130209Z AUTO ///// 4SM VV015 M23/M27 A2998 RMK AO1 SLP244
METAR CYNL 130200Z AUTO ///// 4SM VV012 M23/M27 A2999 RMK AO1 SLP245
SPECI CYNL 130155Z AUTO ///// 3SM VV014 M23/M27 A2999 RMK AO1 SLP246
SPECI CYNL 130150Z AUTO ///// 3SM VV015 M23/M27 A2999 RMK AO1 SLP246
SPECI CYNL 130146Z AUTO ///// 3SM VV014 M23/M27 A2999 RMK AO1 SLP246
SPECI CYNL 130125Z AUTO ///// 4SM VV015 M23/M27 A2999 RMK AO1 SLP247
SPECI CYNL 130122Z AUTO ///// 4SM VV014 M23/M27 A2999 RMK AO1 SLP247
SPECI CYNL 130108Z AUTO ///// 4SM VV015 M24/M27 A2999 RMK AO1 SLP247
SPECI CYNL 130101Z AUTO ///// 3SM VV014 M24/M27 A2999 RMK AO1 SLP247
METAR CYNL 130100Z AUTO ///// 2 1/2SM VV014 M24/M27 A2999 RMK AO1 SLP247
SPECI CYNL 130055Z AUTO ///// 2 1/2SM VV014 M24/M27 A2999 RMK AO1 SLP248
SPECI CYNL 130054Z AUTO ///// 2SM VV015 M24/M27 A2999 RMK AO1 SLP248
SPECI CYNL 130050Z AUTO ///// 2 1/2SM VV014 M24/M27 A2999 RMK AO1 SLP248
SPECI CYNL 130047Z AUTO ///// 2 1/2SM VV015 M24/M27 A2999 RMK AO1 SLP248
SPECI CYNL 130032Z AUTO ///// 5SM VV018 M24/M27 A3000 RMK AO1 SLP251
SPECI CYNL 130025Z AUTO ///// 9SM SCT006 BKN013 BKN019 M24/M27 A3000 RMK AO1 SLP251
SPECI CYNL 130018Z AUTO ///// 4SM VV009 M24/M27 A3000 RMK AO1 SLP250
SPECI CYNL 130007Z AUTO ///// 3SM VV014 M24/M27 A3000 RMK AO1 SLP250
METAR CYNL 130000Z AUTO ///// 6SM VV020 M24/M27 A3000 RMK AO1 SLP250
SPECI CYNL 122355Z AUTO ///// 5SM VV023 M24/M27 A3000 RMK AO1 SLP250
SPECI CYNL 122344Z AUTO 07004KT 7SM VV025 M24/M27 A3000 RMK AO1 SLP250
SPECI CYNL 122341Z AUTO 07004KT 4SM VV017 M24/M27 A3000 RMK AO1 SLP250
SPECI CYNL 122339Z AUTO ///// 3SM VV012 M24/M27 A3000 RMK AO1 SLP250
SPECI CYNL 122338Z AUTO ///// 3SM VV009 M24/M27 A3000 RMK AO1 SLP250
SPECI CYNL 122337Z AUTO ///// 3SM VV010 M24/M27 A3000 RMK AO1 SLP250
SPECI CYNL 122334Z AUTO ///// 2 1/2SM VV012 M24/M27 A3000 RMK AO1 SLP249
SPECI CYNL 122320Z AUTO 07004KT 3SM VV013 M24/M27 A3000 RMK AO1 SLP251
SPECI CYNL 122313Z AUTO 07004KT 2 1/2SM VV014 M24/M27 A3000 RMK AO1 SLP251
SPECI CYNL 122312Z AUTO 07004KT 2 1/2SM VV015 M24/M27 A3000 RMK AO1 SLP251
METAR CYNL 122300Z AUTO ///// 3SM VV020 M24/M27 A3000 RMK AO1 SLP252
SPECI CYNL 122250Z AUTO ///// 6SM VV015 M24/M27 A3000 RMK AO1 SLP251
SPECI CYNL 122242Z AUTO ///// 9SM VV010 M24/M27 A3000 RMK AO1 SLP251
SPECI CYNL 122239Z AUTO ///// 5SM VV009 M24/M27 A3000 RMK AO1 SLP252
SPECI CYNL 122235Z AUTO 07005KT 6SM VV014 M24/M27 A3000 RMK AO1 SLP251
SPECI CYNL 122234Z AUTO 07005KT 6SM VV015 M24/M27 A3000 RMK AO1 SLP251
SPECI CYNL 122230Z AUTO 07006KT 7SM VV010 M24/M27 A3000 RMK AO1 SLP251
SPECI CYNL 122226Z AUTO ///// 4SM VV009 M24/M27 A3000 RMK AO1 SLP251
SPECI CYNL 122224Z AUTO ///// 4SM VV011 M24/M27 A3000 RMK AO1 SLP251
SPECI CYNL 122223Z AUTO ///// 6SM FEW009 SCT013 BKN018 M24/M27 A3000 RMK AO1 SLP251
SPECI CYNL 122215Z AUTO 07005KT 9SM FEW010 SCT015 BKN021 M24/M27 A3000 RMK AO1 SLP251
SPECI CYNL 122213Z AUTO ///// 7SM VV014 M24/M27 A3000 RMK AO1 SLP251
METAR CYNL 122200Z AUTO 07006KT 4SM VV023 M24/M28 A3000 RMK AO1 SLP250
SPECI CYNL 122159Z AUTO 07005KT 6SM VV024 M24/M28 A3000 RMK AO1 SLP250
SPECI CYNL 122153Z AUTO ///// 5SM VV025 M24/M28 A3000 RMK AO1 SLP250
SPECI CYNL 122150Z AUTO 07005KT 5SM VV017 M24/M28 A3000 RMK AO1 SLP250
SPECI CYNL 122147Z AUTO 07006KT 3SM VV014 M24/M28 A3000 RMK AO1 SLP251
SPECI CYNL 122132Z AUTO 07006KT 4SM VV024 M24/M28 A3000 RMK AO1 SLP251
SPECI CYNL 122128Z AUTO 07007KT 3SM VV025 M24/M28 A3000 RMK AO1 SLP251
SPECI CYNL 122115Z AUTO ///// 3SM VV018 M24/M28 A3001 RMK AO1 SLP252
SPECI CYNL 122110Z AUTO ///// 2 1/2SM VV020 M24/M28 A3001 RMK AO1 SLP252
METAR CYNL 122100Z AUTO 08006KT 4SM VV017 M24/M28 A3001 RMK AO1 SLP252
SPECI CYNL 122051Z AUTO ///// 6SM VV015 M24/M28 A3001 RMK AO1 SLP252
SPECI CYNL 122050Z AUTO ///// 6SM VV014 M24/M28 A3001 RMK AO1 SLP252
SPECI CYNL 122049Z AUTO ///// 7SM FEW009 SCT014 BKN020 M24/M28 A3001 RMK AO1 SLP252
SPECI CYNL 122041Z AUTO ///// 4SM FEW005 SCT009 M24/M27 A3001 RMK AO1 SLP252
SPECI CYNL 122038Z AUTO ///// 4SM VV009 M24/M27 A3001 RMK AO1 SLP252
SPECI CYNL 122034Z AUTO ///// 4SM VV013 M24/M27 A3001 RMK AO1 SLP251
SPECI CYNL 122032Z AUTO ///// 5SM VV015 M24/M27 A3000 RMK AO1 SLP251
SPECI CYNL 122012Z AUTO 07005KT 8SM FEW007 M24/M28 A3001 RMK AO1 SLP252
METAR CYNL 122000Z AUTO ///// 9SM SCT082 M24/M28 A3001 RMK AO1 SLP254
SPECI CYNL 121902Z AUTO ///// 9SM FEW010 SCT018 BKN078 M24/M28 A3003 RMK AO1 SLP260
METAR CYNL 121900Z AUTO ///// 8SM FEW010 SCT016 BKN020 M24/M28 A3003 RMK AO1 SLP260
SPECI CYNL 121859Z AUTO ///// 7SM FEW010 BKN018 M24/M28 A3003 RMK AO1 SLP261
SPECI CYNL 121856Z AUTO ///// 8SM VV013 M24/M28 A3003 RMK AO1 SLP261
SPECI CYNL 121845Z AUTO 07005KT 6SM VV016 M24/M28 A3003 RMK AO1 SLP262
METAR CYNL 121800Z AUTO 07004KT 9SM CLR M25/M29 A3005 RMK AO1 SLP267
SPECI CYNL 121725Z AUTO ///// 7SM FEW008 SCT009 M26/M29 A3006 RMK AO1 SLP273
SPECI CYNL 121723Z AUTO 06003KT 6SM FEW008 SCT009 BKN013 M26/M29 A3006 RMK AO1 SLP273
SPECI CYNL 121722Z AUTO 06003KT 5SM VV009 M26/M30 A3006 RMK AO1 SLP273
SPECI CYNL 121711Z AUTO 06004KT 7SM VV010 M26/M30 A3006 RMK AO1 SLP273
SPECI CYNL 121705Z AUTO 06005KT 8SM FEW008 SCT015 M26/M30 A3006 RMK AO1 SLP273
METAR CYNL 121700Z AUTO 06003KT 8SM FEW010 SCT015 M26/M30 A3006 RMK AO1 SLP273
SPECI CYNL 121656Z AUTO 07004KT 7SM FEW009 SCT012 M26/M30 A3006 RMK AO1 SLP273
SPECI CYNL 121648Z AUTO 07005KT 8SM VV010 M26/M30 A3005 RMK AO1 SLP273
SPECI CYNL 121636Z AUTO 08004KT 9SM SCT008 M26/M30 A3005 RMK AO1 SLP273
SPECI CYNL 121629Z AUTO 08006KT 8SM SCT008 BKN012 M27/M30 A3005 RMK AO1 SLP272
SPECI CYNL 121619Z AUTO 07005KT 9SM VV009 M27/M31 A3005 RMK AO1 SLP271
SPECI CYNL 121607Z AUTO 07005KT 9SM VV012 M27/M31 A3005 RMK AO1 SLP271
METAR CYNL 121600Z AUTO 07005KT 9SM CLR M27/M31 A3005 RMK AO1 SLP271
METAR CYNL 121500Z AUTO 06004KT 9SM CLR M27/M31 A3005 RMK AO1 SLP272
METAR CYNL 121400Z AUTO 07005KT 9SM CLR M28/M32 A3005 RMK AO1 SLP274
METAR CYNL 121300Z AUTO 07005KT 9SM CLR M28/M32 A3006 RMK AO1 SLP278
METAR CYNL 121200Z AUTO 07005KT 9SM CLR M27/M31 A3006 RMK AO1 SLP278
SPECI CYNL 121112Z AUTO 07005KT 9SM SCT008 M27/M31 A3006 RMK AO1 SLP279
SPECI CYNL 121107Z AUTO 07006KT 7SM SCT008 BKN017 M27/M31 A3006 RMK AO1 SLP279
SPECI CYNL 121105Z AUTO 07006KT 6SM FEW008 BKN012 BKN017 M27/M31 A3006 RMK AO1 SLP280
SPECI CYNL 121101Z AUTO 07005KT 6SM VV014 M27/M31 A3007 RMK AO1 SLP280
METAR CYNL 121100Z AUTO 07005KT 7SM VV015 M27/M31 A3007 RMK AO1 SLP280
SPECI CYNL 121059Z AUTO 07005KT 7SM VV015 M27/M31 A3007 RMK AO1 SLP280
SPECI CYNL 121057Z AUTO 07005KT 8SM VV014 M27/M31 A3007 RMK AO1 SLP279
SPECI CYNL 121054Z AUTO 07006KT 8SM FEW007 SCT010 BKN017 M27/M31 A3007 RMK AO1 SLP279
SPECI CYNL 121050Z AUTO 07006KT 7SM FEW007 SCT010 M27/M31 A3007 RMK AO1 SLP280
SPECI CYNL 121048Z AUTO 07005KT 6SM VV009 M27/M31 A3007 RMK AO1 SLP280
SPECI CYNL 121041Z AUTO 07006KT 7SM VV013 M27/M31 A3007 RMK AO1 SLP280
SPECI CYNL 121011Z AUTO 08006KT 6SM SCT006 M26/M30 A3007 RMK AO1 SLP281
METAR CYNL 121000Z AUTO 08006KT 7SM BKN007 M26/M30 A3008 RMK AO1 SLP282
SPECI CYNL 120936Z AUTO 07005KT 6SM VV007 M26/M30 A3008 RMK AO1 SLP282
SPECI CYNL 120931Z AUTO 07006KT 8SM FEW007 M26/M30 A3008 RMK AO1 SLP283
METAR CYNL 120900Z AUTO 07005KT 6SM CLR M26/M30 A3009 RMK AO1 SLP285
METAR CYNL 120800Z AUTO 07006KT 8SM FEW006 SCT012 M26/M30 A3009 RMK AO1 SLP282
SPECI CYNL 120754Z AUTO 07005KT 6SM FEW006 SCT012 M26/M30 A3009 RMK AO1 SLP282
SPECI CYNL 120746Z AUTO 07005KT 6SM SCT006 BKN016 BKN020 M26/M30 A3009 RMK AO1 SLP282
SPECI CYNL 120741Z AUTO 07006KT 6SM VV009 M26/M30 A3009 RMK AO1 SLP283
SPECI CYNL 120734Z AUTO 07005KT 6SM VV014 M26/M30 A3010 RMK AO1 SLP284
METAR CYNL 120700Z AUTO 07006KT 4SM VV019 M26/M30 A3010 RMK AO1 SLP288
SPECI CYNL 120656Z AUTO 07005KT 4SM VV016 M26/M30 A3011 RMK AO1 SLP291
SPECI CYNL 120641Z AUTO 07005KT 5SM VV010 M26/M30 A3011 RMK AO1 SLP291
SPECI CYNL 120639Z AUTO 07005KT 5SM VV009 M26/M30 A3011 RMK AO1 SLP292
SPECI CYNL 120630Z AUTO 07006KT 6SM FEW008 SCT011 BKN016 M26/M30 A3011 RMK AO1 SLP292
SPECI CYNL 120626Z AUTO 07006KT 6SM VV009 M27/M30 A3011 RMK AO1 SLP293
SPECI CYNL 120620Z AUTO 07006KT 6SM VV014 M27/M30 A3011 RMK AO1 SLP293
SPECI CYNL 120607Z AUTO 07005KT 7SM VV024 M27/M31 A3011 RMK AO1 SLP293
METAR CYNL 120600Z AUTO 07005KT 8SM CLR M27/M31 A3011 RMK AO1 SLP294
METAR CYNL 120500Z AUTO 07005KT 9SM CLR M27/M31 A3012 RMK AO1 SLP296
METAR CYNL 120400Z AUTO 06005KT 9SM CLR M28/M31 A3012 RMK AO1 SLP299
METAR CYNL 120300Z AUTO 07004KT 9SM CLR M28/M32 A3012 RMK AO1 SLP303
METAR CYNL 120200Z AUTO 06003KT 9SM CLR M28/M32 A3013 RMK AO1 SLP307
METAR CYNL 120100Z AUTO 07004KT 9SM CLR M29/M33 A3014 RMK AO1 SLP311
METAR CYNL 120000Z AUTO 07003KT 9SM CLR M29/M33 A3014 RMK AO1 SLP312
METAR CYNL 112300Z AUTO 08004KT 9SM BKN068 M28/M32 A3014 RMK AO1 SLP314
METAR CYNL 112200Z AUTO 07003KT 9SM FEW068 M27/M31 A3014 RMK AO1 SLP315
METAR CYNL 112100Z AUTO 12003KT 9SM FEW052 M26/M29 A3015 RMK AO1 SLP314
METAR CYNL 112000Z AUTO ///// 9SM BKN050 M25/M29 A3015 RMK AO1 SLP312
METAR CYNL 111900Z AUTO ///// 9SM SCT049 M27/M31 A3014 RMK AO1 SLP311
METAR CYNL 111800Z AUTO 14002KT 9SM OVC050 M28/M32 A3015 RMK AO1 SLP314
METAR CYNL 111700Z AUTO 00000KT 9SM OVC049 M30/M34 A3016 RMK AO1 SLP317
METAR CYNL 111600Z AUTO 14002KT 9SM OVC050 M31/M36 A3014 RMK AO1 SLP312
METAR CYNL 111500Z AUTO 05003KT 9SM SCT056 M31/M36 A3012 RMK AO1 SLP308
METAR CYNL 111400Z AUTO 12003KT 9SM SCT050 M31/M36 A3012 RMK AO1 SLP307
METAR CYNL 111300Z AUTO 00000KT 9SM SCT056 BKN064 M32/M36 A3012 RMK AO1 SLP307
METAR CYNL 111200Z AUTO 00000KT 9SM BKN058 M33/M38 A3012 RMK AO1 SLP310
METAR CYNL 111100Z AUTO 00000KT 9SM SCT062 M34/M39 A3012 RMK AO1 SLP310
METAR CYNL 111000Z AUTO 00000KT 9SM CLR M34/M38 A3012 RMK AO1 SLP309
METAR CYNL 110900Z AUTO 00000KT 9SM CLR M33/M38 A3011 RMK AO1 SLP304
METAR CYNL 110800Z AUTO 00000KT 9SM CLR M32/M37 A3012 RMK AO1 SLP305
METAR CYNL 110700Z AUTO 00000KT 9SM CLR M31/M35 A3012 RMK AO1 SLP302
SPECI CYNL 110608Z AUTO 00000KT 9SM SCT006 M30/M34 A3011 RMK AO1 SLP299
METAR CYNL 110600Z AUTO 00000KT 9SM VV007 M30/M34 A3011 RMK AO1 SLP298
SPECI CYNL 110543Z AUTO 00000KT 6SM VV005 M29/M34 A3011 RMK AO1 SLP299
METAR CYNL 110500Z AUTO 00000KT 9SM FEW007 M29/M33 A3010 RMK AO1 SLP297
SPECI CYNL 110453Z AUTO 00000KT 9SM FEW006 SCT008 M29/M33 A3010 RMK AO1 SLP299
SPECI CYNL 110448Z AUTO 00000KT 8SM FEW005 SCT008 BKN011 M29/M33 A3010 RMK AO1 SLP300
SPECI CYNL 110445Z AUTO ///// 6SM FEW005 BKN008 M29/M33 A3010 RMK AO1 SLP300
SPECI CYNL 110437Z AUTO ///// 9SM FEW005 SCT008 BKN012 M29/M33 A3010 RMK AO1 SLP301
SPECI CYNL 110436Z AUTO ///// 7SM VV009 M29/M33 A3010 RMK AO1 SLP301
SPECI CYNL 110430Z AUTO 00000KT 3SM VV010 M29/M33 A3011 RMK AO1 SLP301
SPECI CYNL 110428Z AUTO 00000KT 3SM VV009 M29/M33 A3011 RMK AO1 SLP302
SPECI CYNL 110425Z AUTO 00000KT 2 1/2SM VV009 M29/M33 A3011 RMK AO1 SLP302
SPECI CYNL 110407Z AUTO 00000KT 3SM VV014 M30/M34 A3011 RMK AO1 SLP303
METAR CYNL 110400Z AUTO 00000KT 3SM VV018 M30/M34 A3011 RMK AO1 SLP303
SPECI CYNL 110359Z AUTO 00000KT 4SM VV018 M30/M34 A3011 RMK AO1 SLP304
SPECI CYNL 110351Z AUTO 00000KT 6SM FEW006 SCT009 M30/M34 A3011 RMK AO1 SLP304
SPECI CYNL 110344Z AUTO 00000KT 5SM VV008 M30/M34 A3011 RMK AO1 SLP304
METAR CYNL 110300Z AUTO 00000KT 9SM FEW008 M30/M34 A3011 RMK AO1 SLP306
SPECI CYNL 110242Z AUTO 19002KT 4SM FEW006 SCT012 M30/M34 A3011 RMK AO1 SLP305
SPECI CYNL 110240Z AUTO 19002KT 5SM VV009 M30/M34 A3011 RMK AO1 SLP306
SPECI CYNL 110235Z AUTO 19003KT 5SM VV011 M30/M34 A3011 RMK AO1 SLP306
SPECI CYNL 110203Z AUTO 18002KT 7SM FEW007 M30/M34 A3011 RMK AO1 SLP305
METAR CYNL 110200Z AUTO 18002KT 9SM CLR M30/M34 A3011 RMK AO1 SLP306
SPECI CYNL 110128Z AUTO 21002KT 6SM FEW006 SCT008 M30/M34 A3012 RMK AO1 SLP307
SPECI CYNL 110123Z AUTO 20002KT 6SM SCT007 BKN012 M30/M34 A3012 RMK AO1 SLP308
SPECI CYNL 110114Z AUTO 00000KT 4SM VV009 M30/M35 A3012 RMK AO1 SLP308
SPECI CYNL 110106Z AUTO 00000KT 4SM FEW005 SCT011 M30/M35 A3012 RMK AO1 SLP308
SPECI CYNL 110103Z AUTO 00000KT 4SM VV008 M31/M35 A3012 RMK AO1 SLP308
SPECI CYNL 110101Z AUTO 00000KT 5SM FEW008 M31/M35 A3012 RMK AO1 SLP308
METAR CYNL 110100Z AUTO 00000KT 6SM FEW011 M31/M35 A3012 RMK AO1 SLP308
METAR CYNL 110000Z AUTO 25002KT 9SM CLR M30/M34 A3013 RMK AO1 SLP310
METAR CYNL 102300Z AUTO 00000KT 9SM CLR M28/M33 A3012 RMK AO1 SLP305
METAR CYNL 102200Z AUTO 26002KT 9SM CLR M28/M32 A3013 RMK AO1 SLP306
METAR CYNL 102100Z AUTO ///// 9SM CLR M28/M32 A3012 RMK AO1 SLP303
METAR CYNL 102000Z AUTO ///// 9SM CLR M28/M32 A3012 RMK AO1 SLP302
METAR CYNL 101900Z AUTO ///// 9SM CLR M29/M33 A3012 RMK AO1 SLP306
METAR CYNL 101800Z AUTO 27006KT 9SM CLR M30/M35 A3014 RMK AO1 SLP313
METAR CYNL 101700Z AUTO 26002KT 9SM CLR M32/M37 A3014 RMK AO1 SLP314
METAR CYNL 101600Z AUTO 25005KT 9SM CLR M33/M38 A3014 RMK AO1 SLP314
METAR CYNL 101500Z AUTO 29005KT 9SM FEW004 M33/M38 A3013 RMK AO1 SLP310
SPECI CYNL 101412Z AUTO 28006KT 9SM SCT005 M33/M38 A3014 RMK AO1 SLP309
SPECI CYNL 101407Z AUTO 28005KT 9SM VV006 M33/M38 A3014 RMK AO1 SLP309
METAR CYNL 101400Z AUTO 27006KT 9SM FEW005 M33/M37 A3013 RMK AO1 SLP309
METAR CYNL 101300Z AUTO 23004KT 9SM SCT008 M32/M37 A3015 RMK AO1 SLP310
SPECI CYNL 101237Z AUTO ///// 9SM FEW006 M32/M36 A3015 RMK AO1 SLP308
METAR CYNL 101200Z AUTO 27004KT 9SM CLR M32/M36 A3015 RMK AO1 SLP309
METAR CYNL 101100Z AUTO 27004KT 9SM CLR M32/M36 A3015 RMK AO1 SLP310
METAR CYNL 101000Z AUTO ///// 9SM FEW007 M31/M36 A3014 RMK AO1 SLP304
SPECI CYNL 100925Z AUTO 00000KT 9SM FEW006 M31/M35 A3014 RMK AO1 SLP302
METAR CYNL 100900Z AUTO ///// 9SM CLR M31/M35 A3014 RMK AO1 SLP301
METAR CYNL 100800Z AUTO ///// 9SM CLR M31/M35 A3012 RMK AO1 SLP294
METAR CYNL 100700Z AUTO ///// 9SM FEW003 M30/M35 A3012 RMK AO1 SLP292
SPECI CYNL 100621Z AUTO ///// 9SM SCT003 M30/M34 A3012 RMK AO1 SLP292
SPECI CYNL 100618Z AUTO ///// 9SM VV003 M30/M34 A3012 RMK AO1 SLP292
SPECI CYNL 100614Z AUTO ///// 9SM FEW003 M30/M34 A3012 RMK AO1 SLP292
METAR CYNL 100600Z AUTO ///// 9SM CLR M30/M34 A3012 RMK AO1 SLP293
METAR CYNL 100500Z AUTO ///// 9SM CLR M29/M33 A3012 RMK AO1 SLP291
METAR CYNL 100400Z AUTO 28004KT 9SM CLR M28/M32 A3012 RMK AO1 SLP291
METAR CYNL 100300Z AUTO 29005KT 9SM CLR M27/M30 A3012 RMK AO1 SLP290
METAR CYNL 100200Z AUTO 32004KT 9SM FEW010 BKN041 M25/M29 A3011 RMK AO1 SLP286
SPECI CYNL 100138Z AUTO 32004KT 8SM FEW009 SCT016 BKN034 M25/M28 A3011 RMK AO1 SLP283
SPECI CYNL 100130Z AUTO 32004KT 9SM SCT016 BKN033 M24/M28 A3011 RMK AO1 SLP283
SPECI CYNL 100128Z AUTO 33004KT 4SM VV016 M24/M28 A3011 RMK AO1 SLP283
SPECI CYNL 100122Z AUTO 32005KT 2 1/2SM VV020 M24/M28 A3011 RMK AO1 SLP283
SPECI CYNL 100121Z AUTO 32006KT 2 1/2SM FEW020 BKN033 M24/M28 A3011 RMK AO1 SLP283
METAR CYNL 100100Z AUTO ///// 9SM OVC032 M24/M28 A3011 RMK AO1 SLP282
METAR CYNL 100000Z AUTO ///// 9SM FEW030 M25/M29 A3010 RMK AO1 SLP282
METAR CYNL 092300Z AUTO ///// 9SM CLR M23/M27 A3009 RMK AO1 SLP275
METAR CYNL 092200Z AUTO ///// 9SM CLR M22/M26 A3008 RMK AO1 SLP272
SPECI CYNL 092115Z AUTO ///// 5SM FEW006 M22/M25 A3007 RMK AO1 SLP268
METAR CYNL 092100Z AUTO ///// 9SM CLR M22/M25 A3007 RMK AO1 SLP266
METAR CYNL 092000Z AUTO ///// 9SM FEW007 M22/M25 A3006 RMK AO1 SLP265
SPECI CYNL 091913Z AUTO ///// 9SM SCT007 M22/M25 A3006 RMK AO1 SLP266
SPECI CYNL 091909Z AUTO ///// 6SM SCT007 BKN010 M22/M25 A3006 RMK AO1 SLP267
METAR CYNL 091900Z AUTO ///// 4SM VV009 M22/M25 A3006 RMK AO1 SLP266
SPECI CYNL 091838Z AUTO ///// 4SM VV007 M22/M25 A3006 RMK AO1 SLP268
SPECI CYNL 091833Z AUTO ///// 5SM FEW008 M22/M25 A3006 RMK AO1 SLP268
METAR CYNL 091800Z AUTO ///// 9SM CLR M22/M26 A3007 RMK AO1 SLP270
METAR CYNL 091700Z AUTO ///// 8SM CLR M23/M26 A3007 RMK AO1 SLP274
SPECI CYNL 091636Z AUTO ///// 5SM SCT006 M23/M27 A3008 RMK AO1 SLP277
SPECI CYNL 091602Z AUTO ///// 3SM VV009 M23/M27 A3008 RMK AO1 SLP277
METAR CYNL 091600Z AUTO ///// 3SM VV011 M23/M27 A3008 RMK AO1 SLP277
SPECI CYNL 091558Z AUTO ///// 3SM VV012 M23/M27 A3008 RMK AO1 SLP278
SPECI CYNL 091546Z AUTO ///// 2 1/2SM VV014 M24/M27 A3008 RMK AO1 SLP277
SPECI CYNL 091542Z AUTO ///// 2 1/2SM VV017 M24/M27 A3008 RMK AO1 SLP277
SPECI CYNL 091514Z AUTO ///// 4SM VV016 M24/M27 A3008 RMK AO1 SLP277
SPECI CYNL 091510Z AUTO ///// 4SM VV011 M24/M27 A3007 RMK AO1 SLP277
METAR CYNL 091500Z AUTO ///// 5SM VV008 M23/M27 A3007 RMK AO1 SLP276
SPECI CYNL 091438Z AUTO ///// 3SM VV009 M23/M27 A3007 RMK AO1 SLP276
SPECI CYNL 091432Z AUTO ///// 3SM VV014 M23/M27 A3007 RMK AO1 SLP276
METAR CYNL 091400Z AUTO ///// 5SM VV024 M23/M27 A3006 RMK AO1 SLP274
SPECI CYNL 091355Z AUTO ///// 5SM VV015 M23/M27 A3006 RMK AO1 SLP275
SPECI CYNL 091351Z AUTO ///// 4SM VV010 M23/M27 A3006 RMK AO1 SLP275
SPECI CYNL 091335Z AUTO ///// 4SM VV009 M23/M27 A3006 RMK AO1 SLP275
SPECI CYNL 091320Z AUTO ///// 5SM VV010 M23/M27 A3006 RMK AO1 SLP274
SPECI CYNL 091303Z AUTO ///// 3SM VV009 M23/M27 A3006 RMK AO1 SLP274
METAR CYNL 091300Z AUTO ///// 4SM VV011 M23/M27 A3006 RMK AO1 SLP275
SPECI CYNL 091251Z AUTO ///// 3SM VV014 M23/M27 A3006 RMK AO1 SLP275
SPECI CYNL 091243Z AUTO ///// 2 1/2SM VV014 M23/M27 A3006 RMK AO1 SLP275
SPECI CYNL 091205Z AUTO ///// 2 1/2SM VV018 M24/M27 A3006 RMK AO1 SLP274
SPECI CYNL 091202Z AUTO ///// 3SM VV018 M24/M27 A3006 RMK AO1 SLP274
SPECI CYNL 091201Z AUTO ///// 2 1/2SM VV018 M24/M27 A3006 RMK AO1 SLP274
METAR CYNL 091200Z AUTO ///// 3SM VV018 M24/M27 A3006 RMK AO1 SLP274
SPECI CYNL 091129Z AUTO ///// 4SM VV015 M24/M27 A3006 RMK AO1 SLP275
SPECI CYNL 091128Z AUTO ///// 4SM VV014 M24/M27 A3006 RMK AO1 SLP275
SPECI CYNL 091127Z AUTO ///// 4SM VV015 M24/M27 A3006 RMK AO1 SLP275
SPECI CYNL 091111Z AUTO ///// 4SM VV010 M24/M27 A3006 RMK AO1 SLP275
SPECI CYNL 091101Z AUTO 03006KT 4SM VV009 M24/M27 A3006 RMK AO1 SLP275
METAR CYNL 091100Z AUTO 04005KT 4SM VV010 M24/M27 A3006 RMK AO1 SLP275
SPECI CYNL 091032Z AUTO ///// 3SM VV013 M24/M27 A3007 RMK AO1 SLP275
SPECI CYNL 091023Z AUTO 04004KT 2 1/2SM VV014 M24/M28 A3007 RMK AO1 SLP276
SPECI CYNL 091008Z AUTO ///// 3SM VV016 M24/M28 A3007 RMK AO1 SLP276
METAR CYNL 091000Z AUTO ///// 3SM VV010 M24/M28 A3007 RMK AO1 SLP277
SPECI CYNL 090959Z AUTO ///// 3SM VV010 M24/M28 A3007 RMK AO1 SLP275
SPECI CYNL 090958Z AUTO ///// 3SM VV009 M24/M28 A3007 RMK AO1 SLP274
SPECI CYNL 090940Z AUTO ///// 4SM VV010 M24/M28 A3006 RMK AO1 SLP271
METAR CYNL 090900Z AUTO ///// 4SM VV007 M25/M28 A3005 RMK AO1 SLP269
SPECI CYNL 090850Z AUTO ///// 4SM VV006 M25/M29 A3005 RMK AO1 SLP266
SPECI CYNL 090828Z AUTO 06004KT 5SM FEW005 SCT007 M25/M29 A3005 RMK AO1 SLP268
SPECI CYNL 090823Z AUTO 05003KT 3SM VV006 M25/M29 A3006 RMK AO1 SLP268
SPECI CYNL 090818Z AUTO 06004KT 2 1/2SM VV008 M25/M29 A3005 RMK AO1 SLP267
SPECI CYNL 090813Z AUTO 06004KT 4SM VV007 M25/M29 A3005 RMK AO1 SLP267
SPECI CYNL 090809Z AUTO 06004KT 7SM FEW007 M25/M29 A3005 RMK AO1 SLP268
METAR CYNL 090800Z AUTO 06004KT 9SM CLR M25/M29 A3005 RMK AO1 SLP267
METAR CYNL 090700Z AUTO 07003KT 9SM CLR M26/M30 A3005 RMK AO1 SLP266
METAR CYNL 090600Z AUTO 07004KT 9SM CLR M27/M31 A3005 RMK AO1 SLP267
METAR CYNL 090500Z AUTO 06004KT 9SM CLR M28/M32 A3005 RMK AO1 SLP271
METAR CYNL 090400Z AUTO 07004KT 9SM OVC062 M28/M32 A3005 RMK AO1 SLP276
METAR CYNL 090300Z AUTO 05004KT 9SM BKN064 M29/M33 A3006 RMK AO1 SLP282
METAR CYNL 090200Z AUTO 05004KT 9SM SCT070 M30/M34 A3006 RMK AO1 SLP283
METAR CYNL 090100Z AUTO 06002KT 9SM OVC068 M30/M34 A3005 RMK AO1 SLP283
METAR CYNL 090000Z AUTO ///// 9SM FEW068 M30/M34 A3005 RMK AO1 SLP283
METAR CYNL 082300Z AUTO 06003KT 9SM CLR M29/M33 A3005 RMK AO1 SLP284
METAR CYNL 082200Z AUTO 00000KT 9SM CLR M27/M31 A3004 RMK AO1 SLP283
METAR CYNL 082100Z AUTO ///// 9SM CLR M25/M28 A3004 RMK AO1 SLP277
METAR CYNL 082000Z AUTO 11005KT 9SM CLR M23/M27 A3004 RMK AO1 SLP273
METAR CYNL 081900Z AUTO 12002KT 9SM FEW060 M23/M27 A3004 RMK AO1 SLP274
METAR CYNL 081800Z AUTO ///// 9SM OVC058 M26/M30 A3005 RMK AO1 SLP281
METAR CYNL 081700Z AUTO 00000KT 9SM OVC058 M28/M32 A3006 RMK AO1 SLP288
METAR CYNL 081600Z AUTO 21002KT 9SM OVC056 M29/M34 A3006 RMK AO1 SLP289
METAR CYNL 081500Z AUTO 00000KT 9SM OVC058 M30/M35 A3005 RMK AO1 SLP284
METAR CYNL 081400Z AUTO 00000KT 9SM OVC058 M31/M36 A3004 RMK AO1 SLP282
METAR CYNL 081300Z AUTO ///// 9SM OVC058 M33/M38 A3006 RMK AO1 SLP288
METAR CYNL 081200Z AUTO 23004KT 9SM OVC060 M35/M40 A3006 RMK AO1 SLP292
METAR CYNL 081100Z AUTO 24004KT 9SM BKN078 M36/M41 A3007 RMK AO1 SLP297
METAR CYNL 081000Z AUTO ///// 9SM CLR M36/M41 A3008 RMK AO1 SLP298
METAR CYNL 080900Z AUTO 24005KT 9SM CLR M36/M40 A3009 RMK AO1 SLP299
METAR CYNL 080800Z AUTO 23003KT 9SM CLR M35/M39 A3009 RMK AO1 PRESFR SLP294
METAR CYNL 080700Z AUTO 24003KT 9SM CLR M34/M39 A3011 RMK AO1 SLP305
METAR CYNL 080600Z AUTO 24005KT 9SM CLR M34/M39 A3013 RMK AO1 SLP310
METAR CYNL 080500Z AUTO 24004KT 9SM CLR M33/M38 A3013 RMK AO1 SLP311
METAR CYNL 080400Z AUTO 24004KT 9SM CLR M32/M37 A3012 RMK AO1 SLP309
METAR CYNL 080300Z AUTO 25003KT 9SM CLR M31/M36 A3012 RMK AO1 SLP308
METAR CYNL 080200Z AUTO 00000KT 9SM CLR M31/M35 A3013 RMK AO1 PRESFR SLP311
METAR CYNL 080100Z AUTO 27004KT 9SM CLR M30/M34 A3015 RMK AO1 SLP317
METAR CYNL 080000Z AUTO 25004KT 9SM FEW088 M30/M34 A3017 RMK AO1 SLP321
METAR CYNL 072300Z AUTO 24002KT 9SM FEW090 M30/M34 A3016 RMK AO1 SLP318
METAR CYNL 072200Z AUTO 27005KT 9SM CLR M28/M32 A3017 RMK AO1 PRESRR SLP319
METAR CYNL 072100Z AUTO 27003KT 9SM CLR M25/M29 A3015 RMK AO1 SLP306
METAR CYNL 072000Z AUTO ///// 9SM CLR M28/M32 A3015 RMK AO1 SLP306
METAR CYNL 071900Z AUTO 28005KT 9SM CLR M28/M32 A3015 RMK AO1 SLP307
METAR CYNL 071800Z AUTO 28006KT 9SM CLR M29/M33 A3014 RMK AO1 SLP305
METAR CYNL 071700Z AUTO 28005KT 9SM CLR M30/M35 A3014 RMK AO1 SLP306
METAR CYNL 071600Z AUTO ///// 9SM CLR M31/M36 A3013 RMK AO1 SLP304
METAR CYNL 071500Z AUTO ///// 9SM CLR M31/M36 A3012 RMK AO1 SLP300
METAR CYNL 071400Z AUTO 28003KT 9SM CLR M31/M35 A3011 RMK AO1 SLP295
METAR CYNL 071300Z AUTO ///// 9SM CLR M30/M34 A3009 RMK AO1 SLP288
METAR CYNL 071200Z AUTO 27005KT 9SM CLR M30/M34 A3008 RMK AO1 SLP283
METAR CYNL 071100Z AUTO 28005KT 9SM CLR M29/M33 A3006 RMK AO1 SLP275
METAR CYNL 071000Z AUTO 30005KT 9SM CLR M28/M32 A3005 RMK AO1 PRESRR SLP269
METAR CYNL 070900Z AUTO 29005KT 9SM CLR M27/M31 A3003 RMK AO1 PRESRR SLP259
SPECI CYNL 070826Z AUTO 29006KT 5SM SCT008 M27/M30 A3001 RMK AO1 SLP253
SPECI CYNL 070823Z AUTO 29006KT 4SM VV008 M26/M30 A3001 RMK AO1 SLP253
METAR CYNL 070800Z AUTO 29007KT 9SM FEW007 M26/M30 A3000 RMK AO1 SLP251
SPECI CYNL 070745Z AUTO 29005KT 5SM SCT007 M26/M30 A3001 RMK AO1 SLP250
SPECI CYNL 070739Z AUTO 30005KT 5SM VV008 M26/M30 A3000 RMK AO1 SLP250
SPECI CYNL 070705Z AUTO 29007KT 6SM SCT006 M26/M30 A2999 RMK AO1 SLP243
METAR CYNL 070700Z AUTO 29006KT 5SM SCT006 BKN012 M26/M30 A2999 RMK AO1 SLP243
SPECI CYNL 070651Z AUTO 29005KT 6SM SCT006 M26/M30 A2998 RMK AO1 SLP243
SPECI CYNL 070623Z AUTO 30006KT 5SM VV009 M26/M30 A2998 RMK AO1 SLP242
SPECI CYNL 070616Z AUTO 29006KT 5SM VV010 M26/M30 A2998 RMK AO1 SLP242
SPECI CYNL 070609Z AUTO 30005KT 3SM VV009 M26/M30 A2998 RMK AO1 SLP240
METAR CYNL 070600Z AUTO 30005KT 3SM VV012 M26/M30 A2997 RMK AO1 SLP238
SPECI CYNL 070558Z AUTO 31005KT 3SM VV013 M26/M30 A2997 RMK AO1 SLP238
SPECI CYNL 070549Z AUTO 31006KT 2 1/2SM VV012 M26/M30 A2997 RMK AO1 SLP238
SPECI CYNL 070547Z AUTO 30007KT 3SM VV010 M26/M30 A2997 RMK AO1 SLP238
SPECI CYNL 070542Z AUTO 30006KT 9SM FEW008 M26/M30 A2997 RMK AO1 SLP236
METAR CYNL 070500Z AUTO 28008KT 8SM CLR M26/M30 A2995 RMK AO1 SLP232
METAR CYNL 070400Z AUTO 28006KT 9SM FEW005 SCT012 M26/M29 A2994 RMK AO1 SLP224
SPECI CYNL 070355Z AUTO 28006KT 8SM FEW006 SCT012 BKN096 M25/M29 A2993 RMK AO1 PRESRR SLP224
SPECI CYNL 070352Z AUTO 29006KT 8SM VV011 M25/M29 A2993 RMK AO1 PRESRR SLP223
SPECI CYNL 070343Z AUTO 29007KT 9SM FEW006 SCT009 BKN096 M25/M29 A2993 RMK AO1 PRESRR SLP223
SPECI CYNL 070339Z AUTO 29007KT 9SM FEW006 SCT009 BKN019 M25/M29 A2993 RMK AO1 PRESRR SLP222
SPECI CYNL 070335Z AUTO 29006KT 6SM VV008 M25/M29 A2993 RMK AO1 PRESRR SLP222
SPECI CYNL 070333Z AUTO 29006KT 3SM VV011 M25/M29 A2993 RMK AO1 PRESRR SLP222
SPECI CYNL 070332Z AUTO 29006KT 2 1/2SM VV014 M25/M29 A2993 RMK AO1 PRESRR SLP221
SPECI CYNL 070331Z AUTO 29006KT 2 1/2SM VV016 M25/M29 A2993 RMK AO1 PRESRR SLP221
SPECI CYNL 070326Z AUTO 29006KT 7SM VV015 M25/M29 A2993 RMK AO1 PRESRR SLP221
SPECI CYNL 070323Z AUTO ///// 8SM VV010 M25/M29 A2993 RMK AO1 PRESRR SLP220
SPECI CYNL 070307Z AUTO ///// 9SM VV009 M25/M29 A2992 RMK AO1 PRESRR SLP218
SPECI CYNL 070301Z AUTO 29007KT 4SM VV014 M25/M29 A2992 RMK AO1 PRESRR SLP217
METAR CYNL 070300Z AUTO 30006KT 4SM VV015 M25/M29 A2992 RMK AO1 PRESRR SLP217
SPECI CYNL 070231Z AUTO ///// 6SM VV016 M25/M29 A2991 RMK AO1 SLP214
SPECI CYNL 070229Z AUTO ///// 6SM VV014 M25/M29 A2991 RMK AO1 SLP214
SPECI CYNL 070220Z AUTO ///// 6SM VV015 M25/M29 A2990 RMK AO1 SLP213
SPECI CYNL 070209Z AUTO 29007KT 8SM VV014 M25/M29 A2990 RMK AO1 SLP211
SPECI CYNL 070204Z AUTO ///// 7SM VV015 M25/M29 A2990 RMK AO1 SLP210
METAR CYNL 070200Z AUTO ///// 7SM FEW013 OVC074 M25/M29 A2989 RMK AO1 SLP209
SPECI CYNL 070141Z AUTO ///// 6SM SCT011 OVC074 M25/M29 A2988 RMK AO1 SLP207
SPECI CYNL 070133Z AUTO ///// 6SM SCT011 BKN016 OVC070 M25/M29 A2989 RMK AO1 SLP207
SPECI CYNL 070123Z AUTO ///// 5SM VV014 M25/M28 A2988 RMK AO1 SLP206
METAR CYNL 070100Z AUTO ///// 7SM VV016 M25/M28 A2988 RMK AO1 SLP203
SPECI CYNL 070049Z AUTO ///// 7SM VV020 M25/M28 A2988 RMK AO1 PRESRR SLP204
SPECI CYNL 070023Z AUTO ///// 6SM FEW007 SCT019 BKN064 M24/M28 A2987 RMK AO1 PRESRR SLP200
SPECI CYNL 070021Z AUTO ///// 7SM FEW007 SCT014 BKN018 M24/M28 A2987 RMK AO1 PRESRR SLP200
SPECI CYNL 070018Z AUTO ///// 8SM VV016 M24/M28 A2986 RMK AO1 PRESRR SLP200
SPECI CYNL 070014Z AUTO ///// 7SM VV010 M24/M28 A2986 RMK AO1 PRESRR SLP199
METAR CYNL 070000Z AUTO ///// 8SM SCT006 BKN060 M24/M28 A2986 RMK AO1 PRESRR SLP198
SPECI CYNL 062354Z AUTO 29007KT 8SM SCT007 BKN058 M24/M27 A2986 RMK AO1 PRESRR SLP197
SPECI CYNL 062353Z AUTO 29006KT 7SM VV006 M24/M27 A2986 RMK AO1 PRESRR SLP197
SPECI CYNL 062340Z AUTO 30007KT 9SM FEW007 OVC058 M24/M27 A2985 RMK AO1 PRESRR SLP195
METAR CYNL 062300Z AUTO ///// 9SM OVC060 M24/M27 A2983 RMK AO1 PRESRR SLP189
METAR CYNL 062200Z AUTO ///// 8SM BKN058 M23/M27 A2980 RMK AO1 PRESRR SLP179
SPECI CYNL 062115Z AUTO ///// 6SM SCT005 BKN036 BKN054 M24/M27 A2977 RMK AO1 PRESRR SLP174
SPECI CYNL 062106Z AUTO ///// 5SM VV006 M24/M27 A2977 RMK AO1 PRESRR SLP173
METAR CYNL 062100Z AUTO ///// 6SM FEW005 BKN036 BKN054 M24/M27 A2976 RMK AO1 PRESRR SLP172
SPECI CYNL 062047Z AUTO ///// 6SM FEW006 SCT011 OVC036 M23/M27 A2976 RMK AO1 PRESRR SLP173
SPECI CYNL 062041Z AUTO ///// 4SM SCT006 BKN011 BKN014 M23/M27 A2976 RMK AO1 PRESRR SLP172
SPECI CYNL 062032Z AUTO ///// 3SM VV008 M23/M27 A2975 RMK AO1 PRESRR SLP170
SPECI CYNL 062007Z AUTO ///// 4SM SCT008 OVC013 M23/M27 A2974 RMK AO1 PRESRR SLP166
METAR CYNL 062000Z AUTO ///// 3SM VV013 M23/M26 A2974 RMK AO1 PRESRR SLP164
SPECI CYNL 061959Z AUTO ///// 3SM VV012 M23/M26 A2974 RMK AO1 PRESRR SLP164
SPECI CYNL 061936Z AUTO ///// 5SM BKN008 OVC017 M23/M26 A2973 RMK AO1 SLP160
SPECI CYNL 061919Z AUTO ///// 8SM SCT006 OVC011 M23/M26 A2972 RMK AO1 SLP157
SPECI CYNL 061913Z AUTO ///// 7SM VV010 M23/M26 A2972 RMK AO1 SLP157
METAR CYNL 061900Z AUTO ///// 6SM VV006 M23/M27 A2971 RMK AO1 SLP155
METAR CYNL 061800Z AUTO 30006KT 9SM BKN006 BKN008 M23/M27 A2970 RMK AO1 PRESRR SLP148
SPECI CYNL 061757Z AUTO ///// 4SM BKN007 BKN008 M23/M27 A2970 RMK AO1 PRESRR SLP147
SPECI CYNL 061756Z AUTO ///// 2 1/2SM BKN007 BKN008 M23/M27 A2969 RMK AO1 PRESRR SLP147
SPECI CYNL 061753Z AUTO ///// 1 1/2SM VV008 M23/M27 A2969 RMK AO1 PRESRR SLP147
SPECI CYNL 061751Z AUTO ///// 1 1/4SM BKN007 M23/M26 A2969 RMK AO1 PRESRR SLP146
SPECI CYNL 061749Z AUTO ///// 1 3/4SM BKN007 M23/M26 A2969 RMK AO1 PRESRR SLP146
SPECI CYNL 061748Z AUTO 30005KT 2SM BKN007 M23/M26 A2969 RMK AO1 PRESRR SLP146
SPECI CYNL 061732Z AUTO ///// 3SM BKN007 BKN014 OVC018 M23/M26 A2969 RMK AO1 PRESRR SLP144
SPECI CYNL 061731Z AUTO 31006KT 2 1/2SM BKN007 BKN014 OVC017 M23/M26 A2969 RMK AO1 PRESRR SLP143
SPECI CYNL 061727Z AUTO ///// 5SM BKN007 OVC015 M23/M26 A2968 RMK AO1 PRESRR SLP143
SPECI CYNL 061722Z AUTO ///// 3SM SCT008 BKN013 OVC017 M23/M26 A2968 RMK AO1 PRESRR SLP142
SPECI CYNL 061718Z AUTO 31004KT 2SM FEW008 SCT011 OVC015 M23/M26 A2968 RMK AO1 PRESRR SLP142
SPECI CYNL 061715Z AUTO ///// 1 3/4SM VV012 M23/M26 A2968 RMK AO1 PRESRR SLP142
SPECI CYNL 061712Z AUTO ///// 2 1/2SM VV013 M23/M26 A2968 RMK AO1 PRESRR SLP141
SPECI CYNL 061710Z AUTO ///// 4SM VV014 M23/M26 A2968 RMK AO1 PRESRR SLP141
SPECI CYNL 061704Z AUTO ///// 9SM VV015 M23/M26 A2968 RMK AO1 PRESRR SLP140
METAR CYNL 061700Z AUTO 31004KT 3SM VV013 M23/M26 A2967 RMK AO1 PRESRR SLP140
SPECI CYNL 061658Z AUTO 32005KT 3SM VV014 M23/M26 A2967 RMK AO1 PRESRR SLP139
SPECI CYNL 061657Z AUTO 32005KT 4SM VV015 M23/M26 A2967 RMK AO1 SLP139
SPECI CYNL 061651Z AUTO ///// 3SM VV011 M23/M26 A2967 RMK AO1 SLP138
SPECI CYNL 061647Z AUTO ///// 2SM VV013 M23/M26 A2967 RMK AO1 SLP137
SPECI CYNL 061645Z AUTO ///// 2 1/2SM VV016 M23/M26 A2967 RMK AO1 SLP137
SPECI CYNL 061621Z AUTO ///// 8SM VV024 M22/M26 A2966 RMK AO1 SLP133
SPECI CYNL 061619Z AUTO ///// 9SM VV025 M22/M26 A2966 RMK AO1 SLP133
SPECI CYNL 061615Z AUTO ///// 9SM VV024 M22/M26 A2966 RMK AO1 SLP133
SPECI CYNL 061614Z AUTO ///// 9SM VV025 M22/M26 A2966 RMK AO1 SLP132
SPECI CYNL 061613Z AUTO ///// 9SM VV024 M22/M26 A2966 RMK AO1 SLP132
SPECI CYNL 061610Z AUTO ///// 9SM VV029 M22/M26 A2966 RMK AO1 SLP132
SPECI CYNL 061605Z AUTO ///// 6SM VV030 M22/M26 A2965 RMK AO1 SLP132
METAR CYNL 061600Z AUTO ///// 6SM VV028 M22/M26 A2965 RMK AO1 SLP131
SPECI CYNL 061547Z AUTO ///// 6SM VV025 M22/M26 A2965 RMK AO1 SLP128
SPECI CYNL 061543Z AUTO ///// 6SM VV016 M22/M25 A2964 RMK AO1 SLP127
SPECI CYNL 061542Z AUTO ///// 6SM VV012 M22/M25 A2964 RMK AO1 SLP127
SPECI CYNL 061535Z AUTO ///// 4SM VV009 M22/M25 A2964 RMK AO1 SLP126
SPECI CYNL 061531Z AUTO ///// 3SM VV013 M22/M25 A2964 RMK AO1 SLP125
SPECI CYNL 061528Z AUTO ///// 2SM VV014 M22/M25 A2964 RMK AO1 SLP125
SPECI CYNL 061524Z AUTO ///// 2SM VV018 M22/M25 A2964 RMK AO1 SLP125
SPECI CYNL 061523Z AUTO ///// 1 3/4SM VV020 M22/M25 A2964 RMK AO1 SLP125
SPECI CYNL 061517Z AUTO ///// 2 1/2SM VV015 M22/M25 A2964 RMK AO1 SLP124
SPECI CYNL 061515Z AUTO ///// 3SM VV011 M22/M25 A2963 RMK AO1 SLP123
SPECI CYNL 061512Z AUTO ///// 5SM VV009 M22/M25 A2963 RMK AO1 SLP122
SPECI CYNL 061511Z AUTO ///// 5SM VV010 M22/M25 A2963 RMK AO1 SLP122
METAR CYNL 061500Z AUTO ///// 6SM VV009 M22/M25 A2963 RMK AO1 SLP122
SPECI CYNL 061454Z AUTO ///// 5SM VV009 M22/M25 A2963 RMK AO1 SLP119
SPECI CYNL 061447Z AUTO ///// 4SM VV010 M22/M26 A2963 RMK AO1 SLP119
SPECI CYNL 061443Z AUTO ///// 3SM VV008 M22/M26 A2963 RMK AO1 SLP119
SPECI CYNL 061441Z AUTO ///// 2SM VV008 M22/M26 A2963 RMK AO1 SLP119
SPECI CYNL 061439Z AUTO ///// 1 3/4SM VV009 M22/M26 A2962 RMK AO1 SLP118
SPECI CYNL 061438Z AUTO ///// 1 3/4SM VV010 M22/M26 A2962 RMK AO1 SLP118
SPECI CYNL 061435Z AUTO ///// 2 1/2SM VV014 M22/M26 A2962 RMK AO1 SLP118
SPECI CYNL 061434Z AUTO ///// 2 1/2SM VV016 M22/M26 A2962 RMK AO1 SLP118
SPECI CYNL 061430Z AUTO ///// 3SM VV015 M23/M26 A2962 RMK AO1 SLP118
SPECI CYNL 061428Z AUTO ///// 3SM VV012 M23/M26 A2962 RMK AO1 SLP118
SPECI CYNL 061426Z AUTO ///// 2SM VV010 M23/M26 A2962 RMK AO1 SLP118
SPECI CYNL 061422Z AUTO ///// 1 1/2SM VV014 M23/M26 A2962 RMK AO1 SLP119
SPECI CYNL 061421Z AUTO ///// 1 1/2SM VV015 M23/M26 A2962 RMK AO1 SLP119
SPECI CYNL 061419Z AUTO ///// 2 1/2SM VV019 M23/M26 A2962 RMK AO1 SLP119
SPECI CYNL 061412Z AUTO ///// 3SM VV015 M23/M26 A2962 RMK AO1 SLP119
SPECI CYNL 061411Z AUTO ///// 3SM VV013 M23/M26 A2962 RMK AO1 SLP119
SPECI CYNL 061408Z AUTO ///// 2 1/2SM VV014 M23/M26 A2962 RMK AO1 SLP119
METAR CYNL 061400Z AUTO ///// 2 1/2SM VV019 M23/M26 A2962 RMK AO1 SLP119
SPECI CYNL 061357Z AUTO ///// 1 3/4SM VV021 M23/M26 A2962 RMK AO1 SLP116
SPECI CYNL 061345Z AUTO 00003KT 2SM VV021 M23/M27 A2962 RMK AO1 SLP116
SPECI CYNL 061343Z AUTO 00002KT 1 3/4SM VV022 M23/M27 A2962 RMK AO1 SLP116
SPECI CYNL 061342Z AUTO 00002KT 2 1/2SM VV022 M23/M27 A2962 RMK AO1 SLP116
SPECI CYNL 061341Z AUTO 01002KT 3SM VV022 M23/M27 A2962 RMK AO1 SLP116
SPECI CYNL 061335Z AUTO 00000KT 2 1/2SM VV023 M23/M27 A2962 RMK AO1 SLP115
SPECI CYNL 061333Z AUTO ///// 3SM VV022 M23/M27 A2962 RMK AO1 SLP115
SPECI CYNL 061326Z AUTO ///// 2 1/2SM VV020 M23/M27 A2961 RMK AO1 SLP114
SPECI CYNL 061322Z AUTO 01002KT 3SM VV021 M23/M27 A2961 RMK AO1 SLP113
SPECI CYNL 061319Z AUTO 33002KT 2SM VV017 M23/M27 A2961 RMK AO1 SLP114
SPECI CYNL 061318Z AUTO ///// 1 3/4SM VV015 M23/M27 A2961 RMK AO1 SLP113
SPECI CYNL 061316Z AUTO ///// 1 1/2SM VV012 M23/M27 A2961 RMK AO1 SLP112
SPECI CYNL 061312Z AUTO 01002KT 1 1/4SM VV013 M23/M27 A2961 RMK AO1 SLP112
SPECI CYNL 061311Z AUTO 02002KT 1 1/2SM VV014 M23/M27 A2961 RMK AO1 SLP112
SPECI CYNL 061309Z AUTO 00000KT 1 3/4SM VV016 M23/M27 A2961 RMK AO1 SLP112
SPECI CYNL 061306Z AUTO 00000KT 2 1/2SM VV019 M24/M27 A2961 RMK AO1 SLP112
SPECI CYNL 061305Z AUTO 00000KT 3SM VV020 M24/M27 A2961 RMK AO1 SLP112
METAR CYNL 061300Z AUTO ///// 2 1/2SM VV016 M24/M27 A2961 RMK AO1 SLP113
SPECI CYNL 061259Z AUTO ///// 2 1/2SM VV015 M24/M27 A2961 RMK AO1 SLP113
SPECI CYNL 061257Z AUTO ///// 2 1/2SM VV014 M24/M27 A2961 RMK AO1 PRESRR SLP113
SPECI CYNL 061253Z AUTO 00000KT 3SM VV017 M24/M27 A2961 RMK AO1 PRESRR SLP113
SPECI CYNL 061250Z AUTO 00000KT 2SM VV015 M24/M27 A2961 RMK AO1 PRESRR SLP114
SPECI CYNL 061249Z AUTO ///// 2SM VV014 M24/M27 A2961 RMK AO1 PRESRR SLP113
SPECI CYNL 061245Z AUTO ///// 1 3/4SM VV012 M24/M27 A2961 RMK AO1 PRESRR SLP113
SPECI CYNL 061242Z AUTO ///// 2 1/2SM VV014 M24/M27 A2961 RMK AO1 PRESRR SLP112
SPECI CYNL 061234Z AUTO 00000KT 2 1/2SM VV022 M24/M27 A2961 RMK AO1 PRESRR SLP112
SPECI CYNL 061231Z AUTO 00000KT 3SM VV022 M24/M27 A2961 RMK AO1 PRESRR SLP111
SPECI CYNL 061224Z AUTO 00000KT 2 1/2SM VV024 M24/M28 A2960 RMK AO1 PRESRR SLP111
SPECI CYNL 061221Z AUTO 00000KT 3SM VV024 M24/M28 A2960 RMK AO1 PRESRR SLP111
SPECI CYNL 061215Z AUTO 00000KT 6SM VV029 M24/M28 A2960 RMK AO1 PRESRR SLP110
METAR CYNL 061200Z AUTO 00000KT 9SM BKN049 M25/M28 A2960 RMK AO1 PRESRR SLP110
METAR CYNL 061100Z AUTO 04005KT 9SM BKN046 OVC060 M26/M30 A2958 RMK AO1 PRESFR SLP104
METAR CYNL 061000Z AUTO 34003KT 9SM FEW045 BKN100 M29/M33 A2961 RMK AO1 SLP117
METAR CYNL 060900Z AUTO ///// 9SM CLR M31/M36 A2960 RMK AO1 PRESFR SLP114
METAR CYNL 060800Z AUTO ///// 9SM CLR M30/M35 A2964 RMK AO1 SLP125
METAR CYNL 060700Z AUTO ///// 9SM FEW130 M30/M34 A2963 RMK AO1 SLP120
METAR CYNL 060600Z AUTO 23003KT 9SM CLR M29/M34 A2965 RMK AO1 SLP125
METAR CYNL 060500Z AUTO 00000KT 9SM CLR M29/M33 A2965 RMK AO1 SLP127
METAR CYNL 060400Z AUTO ///// 9SM CLR M28/M32 A2966 RMK AO1 SLP126
METAR CYNL 060300Z AUTO 22004KT 9SM CLR M27/M31 A2966 RMK AO1 SLP125
METAR CYNL 060200Z AUTO ///// 9SM CLR M25/M29 A2966 RMK AO1 SLP122
METAR CYNL 060100Z AUTO ///// 9SM CLR M25/M28 A2969 RMK AO1 PRESFR SLP128
METAR CYNL 060000Z AUTO 00000KT 9SM CLR M24/M27 A2971 RMK AO1 SLP134
METAR CYNL 052300Z AUTO ///// 9SM CLR M23/M26 A2972 RMK AO1 SLP136
METAR CYNL 052200Z AUTO ///// 9SM CLR M21/M25 A2973 RMK AO1 SLP137
METAR CYNL 052100Z AUTO ///// 9SM CLR M20/M24 A2973 RMK AO1 SLP137
SPECI CYNL 052030Z AUTO 27007G15KT 9SM SCT013 M20/M23 A2973 RMK AO1 SLP137
METAR CYNL 052000Z AUTO 28010KT 9SM OVC012 M20/M23 A2973 RMK AO1 SLP137
METAR CYNL 051900Z AUTO 28009G19KT 9SM OVC011 M19/M22 A2972 RMK AO1 SLP132
METAR CYNL 051800Z AUTO ///// 5SM OVC010 M19/M22 A2973 RMK AO1 SLP135
SPECI CYNL 051703Z AUTO ///// 4SM OVC011 M18/M21 A2973 RMK AO1 SLP134
METAR CYNL 051700Z AUTO ///// 2SM OVC011 M18/M21 A2973 RMK AO1 SLP134
SPECI CYNL 051627Z AUTO ///// 3SM OVC012 M18/M20 A2972 RMK AO1 SLP131
SPECI CYNL 051626Z AUTO ///// 2 1/2SM OVC012 M18/M20 A2972 RMK AO1 SLP131
METAR CYNL 051600Z AUTO ///// 9SM OVC012 M17/M20 A2971 RMK AO1 SLP127
SPECI CYNL 051504Z AUTO ///// 9SM BKN013 OVC047 M16/M19 A2970 RMK AO1 SLP122
METAR CYNL 051500Z AUTO ///// 9SM SCT013 OVC047 M16/M19 A2969 RMK AO1 SLP121
SPECI CYNL 051423Z AUTO ///// 8SM FEW008 SCT014 BKN050 M16/M19 A2969 RMK AO1 SLP120
SPECI CYNL 051415Z AUTO ///// 5SM FEW008 BKN014 OVC049 M16/M19 A2969 RMK AO1 SLP121
METAR CYNL 051400Z AUTO ///// 9SM OVC013 M16/M19 A2969 RMK AO1 SLP119
SPECI CYNL 051341Z AUTO ///// 7SM BKN013 OVC050 M15/M18 A2969 RMK AO1 SLP117
SPECI CYNL 051315Z AUTO ///// 9SM SCT014 OVC049 M15/M18 A2968 RMK AO1 SLP114
SPECI CYNL 051314Z AUTO ///// 9SM SCT014 BKN019 OVC049 M15/M18 A2968 RMK AO1 SLP114